<?xml version='1.0' encoding='UTF-8'?><gpx version="1.1" creator="JPX - https://github.com/jenetics/jpx" xmlns="http://www.topografix.com/GPX/1/1"><trk><trkseg><trkpt lat="40.667985" lon="-3.2867417"><ele>794.0000000000001</ele><time>2026-04-04T16:18:01.244Z</time></trkpt><trkpt lat="40.6679883" lon="-3.28686"><ele>794.0</ele><time>2026-04-04T16:18:04.245Z</time></trkpt><trkpt lat="40.6679467" lon="-3.2869383"><ele>794.0</ele><time>2026-04-04T16:18:07.244Z</time></trkpt><trkpt lat="40.667875" lon="-3.2869783"><ele>794.0</ele><time>2026-04-04T16:18:10.244Z</time></trkpt><trkpt lat="40.6678017" lon="-3.2870283"><ele>794.0000000000001</ele><time>2026-04-04T16:18:13.244Z</time></trkpt><trkpt lat="40.6677517" lon="-3.2870817"><ele>794.0</ele><time>2026-04-04T16:18:15.244Z</time></trkpt><trkpt lat="40.6677167" lon="-3.2871617"><ele>794.0000000000001</ele><time>2026-04-04T16:18:17.244Z</time></trkpt><trkpt lat="40.6676783" lon="-3.2872367"><ele>794.0</ele><time>2026-04-04T16:18:19.244Z</time></trkpt><trkpt lat="40.6676133" lon="-3.2872783"><ele>794.0</ele><time>2026-04-04T16:18:21.244Z</time></trkpt><trkpt lat="40.6675517" lon="-3.2873367"><ele>794.0</ele><time>2026-04-04T16:18:23.244Z</time></trkpt><trkpt lat="40.667475" lon="-3.2873917"><ele>794.0000000000001</ele><time>2026-04-04T16:18:25.244Z</time></trkpt><trkpt lat="40.6673933" lon="-3.2874183"><ele>794.0</ele><time>2026-04-04T16:18:27.244Z</time></trkpt><trkpt lat="40.6672883" lon="-3.287425"><ele>793.4000000000001</ele><time>2026-04-04T16:18:29.244Z</time></trkpt><trkpt lat="40.66718" lon="-3.287465"><ele>792.8</ele><time>2026-04-04T16:18:31.244Z</time></trkpt><trkpt lat="40.667075" lon="-3.2875133"><ele>792.2</ele><time>2026-04-04T16:18:33.244Z</time></trkpt><trkpt lat="40.6669667" lon="-3.28754"><ele>791.5999999999999</ele><time>2026-04-04T16:18:35.244Z</time></trkpt><trkpt lat="40.6668617" lon="-3.2875317"><ele>791.0</ele><time>2026-04-04T16:18:37.244Z</time></trkpt><trkpt lat="40.6667583" lon="-3.28752"><ele>790.6666666666667</ele><time>2026-04-04T16:18:39.244Z</time></trkpt><trkpt lat="40.6666733" lon="-3.2875567"><ele>790.3333333333334</ele><time>2026-04-04T16:18:41.244Z</time></trkpt><trkpt lat="40.6666" lon="-3.2876417"><ele>790.0</ele><time>2026-04-04T16:18:43.245Z</time></trkpt><trkpt lat="40.6665333" lon="-3.28773"><ele>789.6666666666667</ele><time>2026-04-04T16:18:45.245Z</time></trkpt><trkpt lat="40.666465" lon="-3.2877533"><ele>789.3333333333334</ele><time>2026-04-04T16:18:47.244Z</time></trkpt><trkpt lat="40.666375" lon="-3.2877667"><ele>789.0</ele><time>2026-04-04T16:18:49.244Z</time></trkpt><trkpt lat="40.6662933" lon="-3.2878017"><ele>789.0</ele><time>2026-04-04T16:18:51.244Z</time></trkpt><trkpt lat="40.666205" lon="-3.2878667"><ele>789.0</ele><time>2026-04-04T16:18:53.245Z</time></trkpt><trkpt lat="40.6661467" lon="-3.287955"><ele>789.0</ele><time>2026-04-04T16:18:55.244Z</time></trkpt><trkpt lat="40.6661133" lon="-3.2880317"><ele>789.0</ele><time>2026-04-04T16:18:57.244Z</time></trkpt><trkpt lat="40.6660583" lon="-3.2880967"><ele>789.0</ele><time>2026-04-04T16:18:59.245Z</time></trkpt><trkpt lat="40.6660167" lon="-3.2881733"><ele>789.0</ele><time>2026-04-04T16:19:01.244Z</time></trkpt><trkpt lat="40.6659533" lon="-3.288265"><ele>788.6</ele><time>2026-04-04T16:19:03.244Z</time></trkpt><trkpt lat="40.6658733" lon="-3.28837"><ele>788.2</ele><time>2026-04-04T16:19:05.244Z</time></trkpt><trkpt lat="40.66583" lon="-3.2884317"><ele>787.8000000000001</ele><time>2026-04-04T16:19:06.244Z</time></trkpt><trkpt lat="40.665785" lon="-3.288495"><ele>787.4000000000001</ele><time>2026-04-04T16:19:07.244Z</time></trkpt><trkpt lat="40.6657233" lon="-3.2886167"><ele>787.0</ele><time>2026-04-04T16:19:09.244Z</time></trkpt><trkpt lat="40.6656533" lon="-3.2887117"><ele>786.9999999999999</ele><time>2026-04-04T16:19:11.244Z</time></trkpt><trkpt lat="40.665595" lon="-3.2888117"><ele>787.0</ele><time>2026-04-04T16:19:13.244Z</time></trkpt><trkpt lat="40.6655417" lon="-3.28892"><ele>787.0</ele><time>2026-04-04T16:19:15.244Z</time></trkpt><trkpt lat="40.6655117" lon="-3.2890267"><ele>787.0</ele><time>2026-04-04T16:19:17.243Z</time></trkpt><trkpt lat="40.6654867" lon="-3.2891567"><ele>786.9999999999999</ele><time>2026-04-04T16:19:19.243Z</time></trkpt><trkpt lat="40.6654767" lon="-3.289245"><ele>787.0</ele><time>2026-04-04T16:19:20.243Z</time></trkpt><trkpt lat="40.6654717" lon="-3.2893667"><ele>787.4000000000001</ele><time>2026-04-04T16:19:21.243Z</time></trkpt><trkpt lat="40.66545" lon="-3.28951"><ele>787.8000000000001</ele><time>2026-04-04T16:19:22.244Z</time></trkpt><trkpt lat="40.6654333" lon="-3.2896583"><ele>788.2</ele><time>2026-04-04T16:19:23.243Z</time></trkpt><trkpt lat="40.6654133" lon="-3.289805"><ele>788.6</ele><time>2026-04-04T16:19:24.243Z</time></trkpt><trkpt lat="40.6653917" lon="-3.2899333"><ele>789.0</ele><time>2026-04-04T16:19:25.243Z</time></trkpt><trkpt lat="40.665365" lon="-3.2900383"><ele>788.8333333333334</ele><time>2026-04-04T16:19:26.243Z</time></trkpt><trkpt lat="40.6653383" lon="-3.290125"><ele>788.6666666666667</ele><time>2026-04-04T16:19:27.243Z</time></trkpt><trkpt lat="40.6652917" lon="-3.2902083"><ele>788.5</ele><time>2026-04-04T16:19:28.243Z</time></trkpt><trkpt lat="40.66523" lon="-3.290285"><ele>788.3333333333334</ele><time>2026-04-04T16:19:29.243Z</time></trkpt><trkpt lat="40.6651633" lon="-3.2903567"><ele>788.1666666666667</ele><time>2026-04-04T16:19:30.243Z</time></trkpt><trkpt lat="40.6651" lon="-3.2904267"><ele>788.0</ele><time>2026-04-04T16:19:31.243Z</time></trkpt><trkpt lat="40.6650433" lon="-3.2904917"><ele>788.0</ele><time>2026-04-04T16:19:32.243Z</time></trkpt><trkpt lat="40.66499" lon="-3.2905517"><ele>788.0</ele><time>2026-04-04T16:19:33.243Z</time></trkpt><trkpt lat="40.6649433" lon="-3.2906183"><ele>788.0</ele><time>2026-04-04T16:19:34.243Z</time></trkpt><trkpt lat="40.664895" lon="-3.2907033"><ele>788.0</ele><time>2026-04-04T16:19:35.243Z</time></trkpt><trkpt lat="40.6648417" lon="-3.2907783"><ele>788.0</ele><time>2026-04-04T16:19:36.243Z</time></trkpt><trkpt lat="40.6647917" lon="-3.2908483"><ele>788.0</ele><time>2026-04-04T16:19:37.243Z</time></trkpt><trkpt lat="40.6647367" lon="-3.2909017"><ele>788.0</ele><time>2026-04-04T16:19:38.243Z</time></trkpt><trkpt lat="40.664645" lon="-3.2909783"><ele>787.8333333333334</ele><time>2026-04-04T16:19:40.243Z</time></trkpt><trkpt lat="40.6645883" lon="-3.29102"><ele>787.6666666666667</ele><time>2026-04-04T16:19:41.243Z</time></trkpt><trkpt lat="40.6645317" lon="-3.2910717"><ele>787.5</ele><time>2026-04-04T16:19:42.243Z</time></trkpt><trkpt lat="40.6644433" lon="-3.2911717"><ele>787.3333333333333</ele><time>2026-04-04T16:19:44.243Z</time></trkpt><trkpt lat="40.6643783" lon="-3.2912333"><ele>787.1666666666666</ele><time>2026-04-04T16:19:46.243Z</time></trkpt><trkpt lat="40.6642983" lon="-3.2912983"><ele>787.0</ele><time>2026-04-04T16:19:48.243Z</time></trkpt><trkpt lat="40.664185" lon="-3.2913367"><ele>787.0</ele><time>2026-04-04T16:19:50.243Z</time></trkpt><trkpt lat="40.6641183" lon="-3.2913617"><ele>787.0</ele><time>2026-04-04T16:19:51.243Z</time></trkpt><trkpt lat="40.6640533" lon="-3.2913767"><ele>787.0</ele><time>2026-04-04T16:19:52.243Z</time></trkpt><trkpt lat="40.66394" lon="-3.2914133"><ele>787.0</ele><time>2026-04-04T16:19:54.243Z</time></trkpt><trkpt lat="40.6638467" lon="-3.2914933"><ele>787.0</ele><time>2026-04-04T16:19:56.243Z</time></trkpt><trkpt lat="40.6637583" lon="-3.291565"><ele>786.9999999999999</ele><time>2026-04-04T16:19:58.244Z</time></trkpt><trkpt lat="40.6636733" lon="-3.2916267"><ele>787.0</ele><time>2026-04-04T16:20:00.243Z</time></trkpt><trkpt lat="40.6635883" lon="-3.2916833"><ele>787.0</ele><time>2026-04-04T16:20:02.244Z</time></trkpt><trkpt lat="40.6634783" lon="-3.29174"><ele>787.0</ele><time>2026-04-04T16:20:04.243Z</time></trkpt><trkpt lat="40.66342" lon="-3.2917783"><ele>786.9999999999999</ele><time>2026-04-04T16:20:05.243Z</time></trkpt><trkpt lat="40.6633617" lon="-3.2918133"><ele>787.0</ele><time>2026-04-04T16:20:06.243Z</time></trkpt><trkpt lat="40.6632667" lon="-3.2918617"><ele>787.0</ele><time>2026-04-04T16:20:08.243Z</time></trkpt><trkpt lat="40.6631767" lon="-3.2919033"><ele>787.0</ele><time>2026-04-04T16:20:10.243Z</time></trkpt><trkpt lat="40.6630917" lon="-3.29194"><ele>787.0</ele><time>2026-04-04T16:20:12.243Z</time></trkpt><trkpt lat="40.6629967" lon="-3.29199"><ele>787.0</ele><time>2026-04-04T16:20:14.243Z</time></trkpt><trkpt lat="40.6629033" lon="-3.2920417"><ele>787.0</ele><time>2026-04-04T16:20:16.243Z</time></trkpt><trkpt lat="40.6627933" lon="-3.2921"><ele>786.8</ele><time>2026-04-04T16:20:18.243Z</time></trkpt><trkpt lat="40.6626783" lon="-3.2921533"><ele>786.6</ele><time>2026-04-04T16:20:20.243Z</time></trkpt><trkpt lat="40.66257" lon="-3.29222"><ele>786.4</ele><time>2026-04-04T16:20:22.243Z</time></trkpt><trkpt lat="40.66249" lon="-3.2922833"><ele>786.1999999999999</ele><time>2026-04-04T16:20:24.243Z</time></trkpt><trkpt lat="40.662405" lon="-3.2923133"><ele>786.0</ele><time>2026-04-04T16:20:26.243Z</time></trkpt><trkpt lat="40.6623167" lon="-3.2923133"><ele>786.0</ele><time>2026-04-04T16:20:28.243Z</time></trkpt><trkpt lat="40.662215" lon="-3.2923117"><ele>786.0</ele><time>2026-04-04T16:20:30.243Z</time></trkpt><trkpt lat="40.6620967" lon="-3.292325"><ele>786.0</ele><time>2026-04-04T16:20:32.244Z</time></trkpt><trkpt lat="40.6620233" lon="-3.2923417"><ele>786.0</ele><time>2026-04-04T16:20:33.243Z</time></trkpt><trkpt lat="40.66195" lon="-3.2923617"><ele>786.0</ele><time>2026-04-04T16:20:34.244Z</time></trkpt><trkpt lat="40.6618717" lon="-3.292385"><ele>784.8</ele><time>2026-04-04T16:20:35.243Z</time></trkpt><trkpt lat="40.661805" lon="-3.2924183"><ele>783.5999999999999</ele><time>2026-04-04T16:20:36.244Z</time></trkpt><trkpt lat="40.6617017" lon="-3.2924933"><ele>782.4</ele><time>2026-04-04T16:20:38.243Z</time></trkpt><trkpt lat="40.6615917" lon="-3.2925583"><ele>781.2</ele><time>2026-04-04T16:20:40.243Z</time></trkpt><trkpt lat="40.6614767" lon="-3.2925867"><ele>780.0</ele><time>2026-04-04T16:20:42.243Z</time></trkpt><trkpt lat="40.6613533" lon="-3.2925917"><ele>780.0</ele><time>2026-04-04T16:20:44.243Z</time></trkpt><trkpt lat="40.6612433" lon="-3.2926467"><ele>780.0</ele><time>2026-04-04T16:20:46.243Z</time></trkpt><trkpt lat="40.6611533" lon="-3.2927167"><ele>780.0</ele><time>2026-04-04T16:20:48.243Z</time></trkpt><trkpt lat="40.6610767" lon="-3.2927883"><ele>780.0</ele><time>2026-04-04T16:20:50.243Z</time></trkpt><trkpt lat="40.66101" lon="-3.2928483"><ele>780.0</ele><time>2026-04-04T16:20:52.243Z</time></trkpt><trkpt lat="40.66092" lon="-3.2928717"><ele>779.6666666666666</ele><time>2026-04-04T16:20:55.243Z</time></trkpt><trkpt lat="40.660835" lon="-3.2928683"><ele>779.3333333333333</ele><time>2026-04-04T16:20:57.243Z</time></trkpt><trkpt lat="40.660735" lon="-3.2928583"><ele>779.0</ele><time>2026-04-04T16:20:59.243Z</time></trkpt><trkpt lat="40.66064" lon="-3.292885"><ele>778.6666666666666</ele><time>2026-04-04T16:21:01.243Z</time></trkpt><trkpt lat="40.6605733" lon="-3.29293"><ele>778.3333333333333</ele><time>2026-04-04T16:21:03.243Z</time></trkpt><trkpt lat="40.6605067" lon="-3.29294"><ele>778.0</ele><time>2026-04-04T16:21:05.243Z</time></trkpt><trkpt lat="40.6604317" lon="-3.2929617"><ele>777.9999999999999</ele><time>2026-04-04T16:21:07.243Z</time></trkpt><trkpt lat="40.6603633" lon="-3.2930117"><ele>778.0</ele><time>2026-04-04T16:21:09.243Z</time></trkpt><trkpt lat="40.6602883" lon="-3.2930667"><ele>778.0</ele><time>2026-04-04T16:21:11.243Z</time></trkpt><trkpt lat="40.6602167" lon="-3.2931017"><ele>778.0</ele><time>2026-04-04T16:21:13.243Z</time></trkpt><trkpt lat="40.6601233" lon="-3.2931417"><ele>777.9999999999999</ele><time>2026-04-04T16:21:15.243Z</time></trkpt><trkpt lat="40.66006" lon="-3.293165"><ele>778.0</ele><time>2026-04-04T16:21:16.243Z</time></trkpt><trkpt lat="40.65999" lon="-3.2932"><ele>777.4999999999999</ele><time>2026-04-04T16:21:17.243Z</time></trkpt><trkpt lat="40.6599083" lon="-3.2932317"><ele>777.0</ele><time>2026-04-04T16:21:18.243Z</time></trkpt><trkpt lat="40.65983" lon="-3.2932483"><ele>776.5</ele><time>2026-04-04T16:21:19.243Z</time></trkpt><trkpt lat="40.6597567" lon="-3.29325"><ele>776.0</ele><time>2026-04-04T16:21:20.243Z</time></trkpt><trkpt lat="40.6596867" lon="-3.2932433"><ele>775.4999999999999</ele><time>2026-04-04T16:21:21.243Z</time></trkpt><trkpt lat="40.6596133" lon="-3.2931917"><ele>775.0</ele><time>2026-04-04T16:21:23.244Z</time></trkpt><trkpt lat="40.65956" lon="-3.2931167"><ele>775.4999999999999</ele><time>2026-04-04T16:21:25.243Z</time></trkpt><trkpt lat="40.6595033" lon="-3.2930117"><ele>776.0</ele><time>2026-04-04T16:21:27.243Z</time></trkpt><trkpt lat="40.6594283" lon="-3.2929667"><ele>776.5</ele><time>2026-04-04T16:21:29.243Z</time></trkpt><trkpt lat="40.6593633" lon="-3.293005"><ele>777.0</ele><time>2026-04-04T16:21:31.243Z</time></trkpt><trkpt lat="40.659325" lon="-3.2931017"><ele>777.4999999999999</ele><time>2026-04-04T16:21:33.243Z</time></trkpt><trkpt lat="40.659305" lon="-3.293215"><ele>778.0</ele><time>2026-04-04T16:21:35.243Z</time></trkpt><trkpt lat="40.6592683" lon="-3.29338"><ele>778.0</ele><time>2026-04-04T16:21:37.243Z</time></trkpt><trkpt lat="40.6592333" lon="-3.2934633"><ele>778.0</ele><time>2026-04-04T16:21:38.243Z</time></trkpt><trkpt lat="40.659185" lon="-3.2935283"><ele>778.0</ele><time>2026-04-04T16:21:39.243Z</time></trkpt><trkpt lat="40.6591283" lon="-3.29357"><ele>778.0</ele><time>2026-04-04T16:21:40.243Z</time></trkpt><trkpt lat="40.6590117" lon="-3.2936133"><ele>778.0</ele><time>2026-04-04T16:21:42.243Z</time></trkpt><trkpt lat="40.65889" lon="-3.2936583"><ele>777.9999999999999</ele><time>2026-04-04T16:21:44.243Z</time></trkpt><trkpt lat="40.6588217" lon="-3.2936883"><ele>778.0</ele><time>2026-04-04T16:21:45.243Z</time></trkpt><trkpt lat="40.6587533" lon="-3.2937233"><ele>778.0</ele><time>2026-04-04T16:21:46.244Z</time></trkpt><trkpt lat="40.6586667" lon="-3.2937533"><ele>778.0</ele><time>2026-04-04T16:21:47.243Z</time></trkpt><trkpt lat="40.6585767" lon="-3.2937767"><ele>777.9999999999999</ele><time>2026-04-04T16:21:48.243Z</time></trkpt><trkpt lat="40.65849" lon="-3.2938"><ele>778.0</ele><time>2026-04-04T16:21:49.244Z</time></trkpt><trkpt lat="40.658415" lon="-3.293825"><ele>777.2</ele><time>2026-04-04T16:21:50.243Z</time></trkpt><trkpt lat="40.6583417" lon="-3.2938567"><ele>776.4</ele><time>2026-04-04T16:21:51.243Z</time></trkpt><trkpt lat="40.6582433" lon="-3.2939417"><ele>775.6</ele><time>2026-04-04T16:21:53.243Z</time></trkpt><trkpt lat="40.65816" lon="-3.2940367"><ele>774.8000000000001</ele><time>2026-04-04T16:21:55.243Z</time></trkpt><trkpt lat="40.658075" lon="-3.2941583"><ele>774.0</ele><time>2026-04-04T16:21:57.243Z</time></trkpt><trkpt lat="40.658025" lon="-3.2942233"><ele>774.0</ele><time>2026-04-04T16:21:58.243Z</time></trkpt><trkpt lat="40.6579433" lon="-3.2943417"><ele>774.0</ele><time>2026-04-04T16:22:00.243Z</time></trkpt><trkpt lat="40.657855" lon="-3.2944517"><ele>774.0</ele><time>2026-04-04T16:22:02.243Z</time></trkpt><trkpt lat="40.657805" lon="-3.2945067"><ele>774.0</ele><time>2026-04-04T16:22:03.243Z</time></trkpt><trkpt lat="40.6577217" lon="-3.2946117"><ele>774.0</ele><time>2026-04-04T16:22:05.243Z</time></trkpt><trkpt lat="40.6576483" lon="-3.29468"><ele>774.1666666666666</ele><time>2026-04-04T16:22:07.243Z</time></trkpt><trkpt lat="40.657565" lon="-3.2946983"><ele>774.3333333333333</ele><time>2026-04-04T16:22:09.243Z</time></trkpt><trkpt lat="40.6574883" lon="-3.2947317"><ele>774.5</ele><time>2026-04-04T16:22:11.243Z</time></trkpt><trkpt lat="40.6574383" lon="-3.2948183"><ele>774.6666666666666</ele><time>2026-04-04T16:22:13.243Z</time></trkpt><trkpt lat="40.6574117" lon="-3.294905"><ele>774.8333333333333</ele><time>2026-04-04T16:22:15.243Z</time></trkpt><trkpt lat="40.6573883" lon="-3.2950183"><ele>775.0</ele><time>2026-04-04T16:22:17.243Z</time></trkpt><trkpt lat="40.6573733" lon="-3.295125"><ele>775.0</ele><time>2026-04-04T16:22:19.243Z</time></trkpt><trkpt lat="40.6573283" lon="-3.29527"><ele>775.0</ele><time>2026-04-04T16:22:21.243Z</time></trkpt><trkpt lat="40.6572667" lon="-3.2953833"><ele>775.0</ele><time>2026-04-04T16:22:23.244Z</time></trkpt><trkpt lat="40.6572" lon="-3.2954467"><ele>775.0</ele><time>2026-04-04T16:22:25.243Z</time></trkpt><trkpt lat="40.657135" lon="-3.295485"><ele>775.0</ele><time>2026-04-04T16:22:27.243Z</time></trkpt><trkpt lat="40.65708" lon="-3.2955483"><ele>774.8333333333333</ele><time>2026-04-04T16:22:29.243Z</time></trkpt><trkpt lat="40.6570117" lon="-3.29562"><ele>774.6666666666666</ele><time>2026-04-04T16:22:31.243Z</time></trkpt><trkpt lat="40.6569283" lon="-3.295705"><ele>774.5</ele><time>2026-04-04T16:22:33.243Z</time></trkpt><trkpt lat="40.65687" lon="-3.2957367"><ele>774.3333333333333</ele><time>2026-04-04T16:22:34.243Z</time></trkpt><trkpt lat="40.6567883" lon="-3.2957733"><ele>774.1666666666666</ele><time>2026-04-04T16:22:35.243Z</time></trkpt><trkpt lat="40.6567" lon="-3.2958067"><ele>774.0</ele><time>2026-04-04T16:22:36.243Z</time></trkpt><trkpt lat="40.6566383" lon="-3.29583"><ele>773.8000000000001</ele><time>2026-04-04T16:22:37.243Z</time></trkpt><trkpt lat="40.6565633" lon="-3.2958433"><ele>773.6</ele><time>2026-04-04T16:22:39.243Z</time></trkpt><trkpt lat="40.6564933" lon="-3.2958383"><ele>773.4</ele><time>2026-04-04T16:22:41.243Z</time></trkpt><trkpt lat="40.6563967" lon="-3.29588"><ele>773.2</ele><time>2026-04-04T16:22:43.244Z</time></trkpt><trkpt lat="40.65628" lon="-3.2959567"><ele>773.0</ele><time>2026-04-04T16:22:45.243Z</time></trkpt><trkpt lat="40.6562167" lon="-3.2960017"><ele>773.0000000000001</ele><time>2026-04-04T16:22:46.243Z</time></trkpt><trkpt lat="40.6561483" lon="-3.2960467"><ele>773.0</ele><time>2026-04-04T16:22:47.243Z</time></trkpt><trkpt lat="40.6560783" lon="-3.29609"><ele>773.0</ele><time>2026-04-04T16:22:48.243Z</time></trkpt><trkpt lat="40.6560183" lon="-3.2961267"><ele>773.0</ele><time>2026-04-04T16:22:49.243Z</time></trkpt><trkpt lat="40.6559233" lon="-3.2961733"><ele>773.0000000000001</ele><time>2026-04-04T16:22:51.243Z</time></trkpt><trkpt lat="40.6558533" lon="-3.2962083"><ele>773.0</ele><time>2026-04-04T16:22:53.243Z</time></trkpt><trkpt lat="40.6557817" lon="-3.2962383"><ele>773.3333333333334</ele><time>2026-04-04T16:22:55.243Z</time></trkpt><trkpt lat="40.6557033" lon="-3.296275"><ele>773.6666666666667</ele><time>2026-04-04T16:22:57.243Z</time></trkpt><trkpt lat="40.6556317" lon="-3.296315"><ele>774.0</ele><time>2026-04-04T16:22:59.242Z</time></trkpt><trkpt lat="40.6555683" lon="-3.2963633"><ele>774.3333333333333</ele><time>2026-04-04T16:23:01.242Z</time></trkpt><trkpt lat="40.6554917" lon="-3.296405"><ele>774.6666666666666</ele><time>2026-04-04T16:23:03.242Z</time></trkpt><trkpt lat="40.6553767" lon="-3.2964317"><ele>775.0</ele><time>2026-04-04T16:23:05.242Z</time></trkpt><trkpt lat="40.6553133" lon="-3.2964633"><ele>774.1666666666666</ele><time>2026-04-04T16:23:06.243Z</time></trkpt><trkpt lat="40.6552517" lon="-3.2964983"><ele>773.3333333333333</ele><time>2026-04-04T16:23:07.242Z</time></trkpt><trkpt lat="40.6551633" lon="-3.2965767"><ele>772.5</ele><time>2026-04-04T16:23:09.242Z</time></trkpt><trkpt lat="40.655115" lon="-3.2967017"><ele>771.6666666666667</ele><time>2026-04-04T16:23:11.242Z</time></trkpt><trkpt lat="40.6551017" lon="-3.296785"><ele>770.8333333333334</ele><time>2026-04-04T16:23:12.243Z</time></trkpt><trkpt lat="40.655075" lon="-3.29687"><ele>770.0</ele><time>2026-04-04T16:23:13.242Z</time></trkpt><trkpt lat="40.655015" lon="-3.2970067"><ele>770.0000000000001</ele><time>2026-04-04T16:23:15.242Z</time></trkpt><trkpt lat="40.6549633" lon="-3.2970633"><ele>770.0</ele><time>2026-04-04T16:23:16.242Z</time></trkpt><trkpt lat="40.6548817" lon="-3.2971067"><ele>770.0</ele><time>2026-04-04T16:23:18.242Z</time></trkpt><trkpt lat="40.6547817" lon="-3.2971033"><ele>770.0</ele><time>2026-04-04T16:23:20.242Z</time></trkpt><trkpt lat="40.6547183" lon="-3.2971117"><ele>770.0000000000001</ele><time>2026-04-04T16:23:21.242Z</time></trkpt><trkpt lat="40.6546533" lon="-3.2971183"><ele>770.0</ele><time>2026-04-04T16:23:22.242Z</time></trkpt><trkpt lat="40.65458" lon="-3.2971217"><ele>770.0</ele><time>2026-04-04T16:23:23.242Z</time></trkpt><trkpt lat="40.6545067" lon="-3.2971"><ele>770.0</ele><time>2026-04-04T16:23:24.242Z</time></trkpt><trkpt lat="40.6544433" lon="-3.2970867"><ele>770.0</ele><time>2026-04-04T16:23:25.242Z</time></trkpt><trkpt lat="40.6543417" lon="-3.2971083"><ele>770.0</ele><time>2026-04-04T16:23:27.242Z</time></trkpt><trkpt lat="40.6542433" lon="-3.2971417"><ele>770.0</ele><time>2026-04-04T16:23:29.242Z</time></trkpt><trkpt lat="40.6541317" lon="-3.2971967"><ele>770.3333333333334</ele><time>2026-04-04T16:23:31.242Z</time></trkpt><trkpt lat="40.6540633" lon="-3.297235"><ele>770.6666666666667</ele><time>2026-04-04T16:23:32.242Z</time></trkpt><trkpt lat="40.653975" lon="-3.2972783"><ele>771.0</ele><time>2026-04-04T16:23:33.242Z</time></trkpt><trkpt lat="40.6538933" lon="-3.2973217"><ele>771.3333333333333</ele><time>2026-04-04T16:23:34.242Z</time></trkpt><trkpt lat="40.6538233" lon="-3.2973633"><ele>771.6666666666666</ele><time>2026-04-04T16:23:35.242Z</time></trkpt><trkpt lat="40.6537533" lon="-3.2974033"><ele>772.0</ele><time>2026-04-04T16:23:36.242Z</time></trkpt><trkpt lat="40.6536733" lon="-3.2974517"><ele>770.8</ele><time>2026-04-04T16:23:37.243Z</time></trkpt><trkpt lat="40.653575" lon="-3.2975117"><ele>769.6</ele><time>2026-04-04T16:23:38.242Z</time></trkpt><trkpt lat="40.6534783" lon="-3.2975767"><ele>768.4</ele><time>2026-04-04T16:23:39.242Z</time></trkpt><trkpt lat="40.6533917" lon="-3.2976417"><ele>767.1999999999999</ele><time>2026-04-04T16:23:40.242Z</time></trkpt><trkpt lat="40.6533183" lon="-3.2976933"><ele>766.0</ele><time>2026-04-04T16:23:41.242Z</time></trkpt><trkpt lat="40.6532483" lon="-3.29774"><ele>766.0</ele><time>2026-04-04T16:23:42.242Z</time></trkpt><trkpt lat="40.6531783" lon="-3.2977917"><ele>766.0</ele><time>2026-04-04T16:23:43.242Z</time></trkpt><trkpt lat="40.6531133" lon="-3.2978333"><ele>766.0</ele><time>2026-04-04T16:23:44.242Z</time></trkpt><trkpt lat="40.6530533" lon="-3.2978633"><ele>766.0</ele><time>2026-04-04T16:23:45.242Z</time></trkpt><trkpt lat="40.6529633" lon="-3.2978717"><ele>766.0</ele><time>2026-04-04T16:23:47.242Z</time></trkpt><trkpt lat="40.6529" lon="-3.29785"><ele>766.0</ele><time>2026-04-04T16:23:49.242Z</time></trkpt><trkpt lat="40.6528067" lon="-3.29782"><ele>766.0</ele><time>2026-04-04T16:23:52.242Z</time></trkpt><trkpt lat="40.6527083" lon="-3.297815"><ele>766.0</ele><time>2026-04-04T16:23:54.242Z</time></trkpt><trkpt lat="40.6526467" lon="-3.2979"><ele>766.0</ele><time>2026-04-04T16:23:57.243Z</time></trkpt><trkpt lat="40.652615" lon="-3.2980417"><ele>766.0</ele><time>2026-04-04T16:23:59.242Z</time></trkpt><trkpt lat="40.6525883" lon="-3.29812"><ele>766.0</ele><time>2026-04-04T16:24:01.242Z</time></trkpt><trkpt lat="40.6525317" lon="-3.298185"><ele>766.0</ele><time>2026-04-04T16:24:03.242Z</time></trkpt><trkpt lat="40.6524167" lon="-3.2982617"><ele>765.5999999999999</ele><time>2026-04-04T16:24:05.242Z</time></trkpt><trkpt lat="40.6523533" lon="-3.2983167"><ele>765.2</ele><time>2026-04-04T16:24:06.242Z</time></trkpt><trkpt lat="40.65228" lon="-3.298385"><ele>764.8</ele><time>2026-04-04T16:24:07.242Z</time></trkpt><trkpt lat="40.6522083" lon="-3.2984733"><ele>764.4000000000001</ele><time>2026-04-04T16:24:08.242Z</time></trkpt><trkpt lat="40.6521417" lon="-3.29858"><ele>764.0</ele><time>2026-04-04T16:24:09.242Z</time></trkpt><trkpt lat="40.6520883" lon="-3.2986733"><ele>764.0</ele><time>2026-04-04T16:24:10.242Z</time></trkpt><trkpt lat="40.6520417" lon="-3.2987533"><ele>764.0</ele><time>2026-04-04T16:24:11.242Z</time></trkpt><trkpt lat="40.6519933" lon="-3.2988217"><ele>764.0</ele><time>2026-04-04T16:24:12.242Z</time></trkpt><trkpt lat="40.6519467" lon="-3.29889"><ele>764.0</ele><time>2026-04-04T16:24:13.242Z</time></trkpt><trkpt lat="40.6518933" lon="-3.2989633"><ele>764.0</ele><time>2026-04-04T16:24:14.242Z</time></trkpt><trkpt lat="40.651845" lon="-3.29903"><ele>764.0</ele><time>2026-04-04T16:24:15.242Z</time></trkpt><trkpt lat="40.65179" lon="-3.2990817"><ele>764.0</ele><time>2026-04-04T16:24:16.242Z</time></trkpt><trkpt lat="40.6517317" lon="-3.2991167"><ele>764.2</ele><time>2026-04-04T16:24:17.242Z</time></trkpt><trkpt lat="40.65167" lon="-3.2991417"><ele>764.4000000000001</ele><time>2026-04-04T16:24:18.242Z</time></trkpt><trkpt lat="40.6516" lon="-3.299165"><ele>764.6</ele><time>2026-04-04T16:24:19.242Z</time></trkpt><trkpt lat="40.6515183" lon="-3.2991917"><ele>764.8</ele><time>2026-04-04T16:24:20.242Z</time></trkpt><trkpt lat="40.6514017" lon="-3.2992417"><ele>765.0</ele><time>2026-04-04T16:24:21.242Z</time></trkpt><trkpt lat="40.6512867" lon="-3.2992983"><ele>765.0</ele><time>2026-04-04T16:24:22.242Z</time></trkpt><trkpt lat="40.6511817" lon="-3.2993583"><ele>765.0</ele><time>2026-04-04T16:24:23.242Z</time></trkpt><trkpt lat="40.6510933" lon="-3.29941"><ele>765.0</ele><time>2026-04-04T16:24:24.242Z</time></trkpt><trkpt lat="40.65101" lon="-3.299465"><ele>765.0</ele><time>2026-04-04T16:24:25.243Z</time></trkpt><trkpt lat="40.650925" lon="-3.2995183"><ele>765.0</ele><time>2026-04-04T16:24:26.242Z</time></trkpt><trkpt lat="40.650845" lon="-3.2995733"><ele>765.2</ele><time>2026-04-04T16:24:27.242Z</time></trkpt><trkpt lat="40.6507683" lon="-3.2996317"><ele>765.4</ele><time>2026-04-04T16:24:28.242Z</time></trkpt><trkpt lat="40.65069" lon="-3.2997017"><ele>765.5999999999999</ele><time>2026-04-04T16:24:29.242Z</time></trkpt><trkpt lat="40.650615" lon="-3.299775"><ele>765.8</ele><time>2026-04-04T16:24:30.242Z</time></trkpt><trkpt lat="40.6505467" lon="-3.2998483"><ele>766.0</ele><time>2026-04-04T16:24:31.243Z</time></trkpt><trkpt lat="40.6504817" lon="-3.2999267"><ele>766.0</ele><time>2026-04-04T16:24:32.242Z</time></trkpt><trkpt lat="40.6504333" lon="-3.300005"><ele>766.0</ele><time>2026-04-04T16:24:33.242Z</time></trkpt><trkpt lat="40.6503933" lon="-3.3000817"><ele>766.0</ele><time>2026-04-04T16:24:34.242Z</time></trkpt><trkpt lat="40.6503517" lon="-3.30016"><ele>766.0</ele><time>2026-04-04T16:24:35.242Z</time></trkpt><trkpt lat="40.650305" lon="-3.30024"><ele>766.0</ele><time>2026-04-04T16:24:36.242Z</time></trkpt><trkpt lat="40.6502567" lon="-3.3002983"><ele>766.0</ele><time>2026-04-04T16:24:37.242Z</time></trkpt><trkpt lat="40.6501567" lon="-3.3003467"><ele>765.5</ele><time>2026-04-04T16:24:39.242Z</time></trkpt><trkpt lat="40.6500917" lon="-3.3003683"><ele>765.0</ele><time>2026-04-04T16:24:40.242Z</time></trkpt><trkpt lat="40.6500067" lon="-3.3004"><ele>764.5</ele><time>2026-04-04T16:24:41.242Z</time></trkpt><trkpt lat="40.64992" lon="-3.3004433"><ele>764.0</ele><time>2026-04-04T16:24:42.242Z</time></trkpt><trkpt lat="40.6498283" lon="-3.3004933"><ele>763.5</ele><time>2026-04-04T16:24:43.242Z</time></trkpt><trkpt lat="40.6497467" lon="-3.3005533"><ele>763.0</ele><time>2026-04-04T16:24:44.242Z</time></trkpt><trkpt lat="40.649665" lon="-3.300625"><ele>763.0</ele><time>2026-04-04T16:24:45.242Z</time></trkpt><trkpt lat="40.6495867" lon="-3.30069"><ele>763.0</ele><time>2026-04-04T16:24:46.242Z</time></trkpt><trkpt lat="40.6495033" lon="-3.3007383"><ele>763.0</ele><time>2026-04-04T16:24:47.242Z</time></trkpt><trkpt lat="40.649415" lon="-3.3007733"><ele>763.0</ele><time>2026-04-04T16:24:48.242Z</time></trkpt><trkpt lat="40.6493283" lon="-3.30081"><ele>763.0</ele><time>2026-04-04T16:24:49.242Z</time></trkpt><trkpt lat="40.6492383" lon="-3.3008517"><ele>762.0</ele><time>2026-04-04T16:24:50.242Z</time></trkpt><trkpt lat="40.6491533" lon="-3.300905"><ele>761.0</ele><time>2026-04-04T16:24:51.242Z</time></trkpt><trkpt lat="40.64906" lon="-3.300975"><ele>760.0</ele><time>2026-04-04T16:24:52.242Z</time></trkpt><trkpt lat="40.6489833" lon="-3.30103"><ele>759.0</ele><time>2026-04-04T16:24:53.242Z</time></trkpt><trkpt lat="40.6489017" lon="-3.3010783"><ele>758.0</ele><time>2026-04-04T16:24:54.242Z</time></trkpt><trkpt lat="40.6488167" lon="-3.301125"><ele>758.0</ele><time>2026-04-04T16:24:55.242Z</time></trkpt><trkpt lat="40.64874" lon="-3.3011817"><ele>758.0</ele><time>2026-04-04T16:24:56.242Z</time></trkpt><trkpt lat="40.6486683" lon="-3.3012517"><ele>758.0</ele><time>2026-04-04T16:24:57.242Z</time></trkpt><trkpt lat="40.64859" lon="-3.3013417"><ele>758.0</ele><time>2026-04-04T16:24:58.242Z</time></trkpt><trkpt lat="40.6485017" lon="-3.3014433"><ele>758.0</ele><time>2026-04-04T16:24:59.242Z</time></trkpt><trkpt lat="40.6484183" lon="-3.3015517"><ele>757.8</ele><time>2026-04-04T16:25:00.242Z</time></trkpt><trkpt lat="40.6483417" lon="-3.3016567"><ele>757.5999999999999</ele><time>2026-04-04T16:25:01.242Z</time></trkpt><trkpt lat="40.6482733" lon="-3.3017533"><ele>757.4000000000001</ele><time>2026-04-04T16:25:02.243Z</time></trkpt><trkpt lat="40.6481967" lon="-3.3018133"><ele>757.2</ele><time>2026-04-04T16:25:04.242Z</time></trkpt><trkpt lat="40.6481367" lon="-3.3018483"><ele>757.0</ele><time>2026-04-04T16:25:05.242Z</time></trkpt><trkpt lat="40.6480533" lon="-3.3018817"><ele>757.0</ele><time>2026-04-04T16:25:06.242Z</time></trkpt><trkpt lat="40.647955" lon="-3.3019267"><ele>757.0</ele><time>2026-04-04T16:25:07.242Z</time></trkpt><trkpt lat="40.6478683" lon="-3.3019883"><ele>757.0</ele><time>2026-04-04T16:25:08.242Z</time></trkpt><trkpt lat="40.6477833" lon="-3.3020467"><ele>757.0</ele><time>2026-04-04T16:25:09.242Z</time></trkpt><trkpt lat="40.64771" lon="-3.3020967"><ele>757.0</ele><time>2026-04-04T16:25:10.242Z</time></trkpt><trkpt lat="40.64764" lon="-3.3021433"><ele>757.1666666666667</ele><time>2026-04-04T16:25:11.242Z</time></trkpt><trkpt lat="40.6475633" lon="-3.3022133"><ele>757.3333333333334</ele><time>2026-04-04T16:25:12.242Z</time></trkpt><trkpt lat="40.647505" lon="-3.3022983"><ele>757.5</ele><time>2026-04-04T16:25:13.242Z</time></trkpt><trkpt lat="40.6474667" lon="-3.302375"><ele>757.6666666666666</ele><time>2026-04-04T16:25:14.242Z</time></trkpt><trkpt lat="40.6474133" lon="-3.302525"><ele>757.8333333333333</ele><time>2026-04-04T16:25:16.242Z</time></trkpt><trkpt lat="40.6473883" lon="-3.30261"><ele>758.0</ele><time>2026-04-04T16:25:17.242Z</time></trkpt><trkpt lat="40.6473633" lon="-3.3026883"><ele>758.0</ele><time>2026-04-04T16:25:18.242Z</time></trkpt><trkpt lat="40.6473367" lon="-3.3028117"><ele>758.0</ele><time>2026-04-04T16:25:20.242Z</time></trkpt><trkpt lat="40.6472717" lon="-3.30282"><ele>758.0</ele><time>2026-04-04T16:25:22.242Z</time></trkpt><trkpt lat="40.6471867" lon="-3.3027733"><ele>758.0</ele><time>2026-04-04T16:25:24.242Z</time></trkpt><trkpt lat="40.64709" lon="-3.30272"><ele>758.0</ele><time>2026-04-04T16:25:26.242Z</time></trkpt><trkpt lat="40.64699" lon="-3.3027017"><ele>757.2</ele><time>2026-04-04T16:25:28.242Z</time></trkpt><trkpt lat="40.6469017" lon="-3.3027317"><ele>756.4</ele><time>2026-04-04T16:25:30.242Z</time></trkpt><trkpt lat="40.6468033" lon="-3.3028017"><ele>755.6</ele><time>2026-04-04T16:25:32.242Z</time></trkpt><trkpt lat="40.6467267" lon="-3.302865"><ele>754.8000000000001</ele><time>2026-04-04T16:25:34.242Z</time></trkpt><trkpt lat="40.6466683" lon="-3.3029683"><ele>754.0</ele><time>2026-04-04T16:25:36.242Z</time></trkpt><trkpt lat="40.6465817" lon="-3.3030667"><ele>754.1666666666667</ele><time>2026-04-04T16:25:38.242Z</time></trkpt><trkpt lat="40.6464767" lon="-3.3031283"><ele>754.3333333333334</ele><time>2026-04-04T16:25:40.242Z</time></trkpt><trkpt lat="40.6463817" lon="-3.303205"><ele>754.5</ele><time>2026-04-04T16:25:42.242Z</time></trkpt><trkpt lat="40.646325" lon="-3.3032617"><ele>754.6666666666666</ele><time>2026-04-04T16:25:43.242Z</time></trkpt><trkpt lat="40.6462817" lon="-3.30333"><ele>754.8333333333333</ele><time>2026-04-04T16:25:44.242Z</time></trkpt><trkpt lat="40.6462467" lon="-3.3034017"><ele>755.0</ele><time>2026-04-04T16:25:45.242Z</time></trkpt><trkpt lat="40.64621" lon="-3.3034733"><ele>755.0</ele><time>2026-04-04T16:25:46.242Z</time></trkpt><trkpt lat="40.646165" lon="-3.3035367"><ele>755.0</ele><time>2026-04-04T16:25:47.242Z</time></trkpt><trkpt lat="40.6461017" lon="-3.3036017"><ele>755.0</ele><time>2026-04-04T16:25:48.242Z</time></trkpt><trkpt lat="40.6460233" lon="-3.3036617"><ele>755.0</ele><time>2026-04-04T16:25:49.242Z</time></trkpt><trkpt lat="40.645935" lon="-3.303715"><ele>755.0</ele><time>2026-04-04T16:25:50.242Z</time></trkpt><trkpt lat="40.6458417" lon="-3.3037683"><ele>755.0</ele><time>2026-04-04T16:25:51.242Z</time></trkpt><trkpt lat="40.64575" lon="-3.3038233"><ele>754.5</ele><time>2026-04-04T16:25:52.243Z</time></trkpt><trkpt lat="40.64566" lon="-3.3038767"><ele>754.0</ele><time>2026-04-04T16:25:53.242Z</time></trkpt><trkpt lat="40.6455833" lon="-3.3039283"><ele>753.5</ele><time>2026-04-04T16:25:54.242Z</time></trkpt><trkpt lat="40.6455117" lon="-3.3039933"><ele>753.0</ele><time>2026-04-04T16:25:55.242Z</time></trkpt><trkpt lat="40.6454517" lon="-3.3040567"><ele>752.5</ele><time>2026-04-04T16:25:56.242Z</time></trkpt><trkpt lat="40.6453783" lon="-3.3041267"><ele>752.0</ele><time>2026-04-04T16:25:57.242Z</time></trkpt><trkpt lat="40.645305" lon="-3.3042017"><ele>751.5</ele><time>2026-04-04T16:25:58.242Z</time></trkpt><trkpt lat="40.645225" lon="-3.304285"><ele>751.0</ele><time>2026-04-04T16:25:59.242Z</time></trkpt><trkpt lat="40.6451417" lon="-3.3043883"><ele>750.5</ele><time>2026-04-04T16:26:00.242Z</time></trkpt><trkpt lat="40.6450517" lon="-3.304485"><ele>750.0</ele><time>2026-04-04T16:26:01.243Z</time></trkpt><trkpt lat="40.6449517" lon="-3.3045667"><ele>750.0</ele><time>2026-04-04T16:26:02.242Z</time></trkpt><trkpt lat="40.6448533" lon="-3.3046333"><ele>750.0</ele><time>2026-04-04T16:26:03.242Z</time></trkpt><trkpt lat="40.644765" lon="-3.3046933"><ele>750.0</ele><time>2026-04-04T16:26:04.242Z</time></trkpt><trkpt lat="40.64468" lon="-3.3047533"><ele>750.0</ele><time>2026-04-04T16:26:05.243Z</time></trkpt><trkpt lat="40.6445933" lon="-3.30483"><ele>750.0</ele><time>2026-04-04T16:26:06.242Z</time></trkpt><trkpt lat="40.6445083" lon="-3.30492"><ele>749.6666666666666</ele><time>2026-04-04T16:26:07.242Z</time></trkpt><trkpt lat="40.64443" lon="-3.3050083"><ele>749.3333333333334</ele><time>2026-04-04T16:26:08.242Z</time></trkpt><trkpt lat="40.64435" lon="-3.3050883"><ele>749.0</ele><time>2026-04-04T16:26:09.242Z</time></trkpt><trkpt lat="40.6442817" lon="-3.3051667"><ele>748.6666666666667</ele><time>2026-04-04T16:26:10.242Z</time></trkpt><trkpt lat="40.644225" lon="-3.3052383"><ele>748.3333333333334</ele><time>2026-04-04T16:26:11.242Z</time></trkpt><trkpt lat="40.6441767" lon="-3.3053067"><ele>748.0</ele><time>2026-04-04T16:26:12.242Z</time></trkpt><trkpt lat="40.6441233" lon="-3.3053767"><ele>748.0</ele><time>2026-04-04T16:26:13.242Z</time></trkpt><trkpt lat="40.6440583" lon="-3.3054333"><ele>748.0</ele><time>2026-04-04T16:26:14.243Z</time></trkpt><trkpt lat="40.6439833" lon="-3.3054733"><ele>748.0</ele><time>2026-04-04T16:26:15.242Z</time></trkpt><trkpt lat="40.643895" lon="-3.3055183"><ele>748.0</ele><time>2026-04-04T16:26:16.242Z</time></trkpt><trkpt lat="40.6438167" lon="-3.3055667"><ele>748.0</ele><time>2026-04-04T16:26:17.242Z</time></trkpt><trkpt lat="40.643745" lon="-3.3056117"><ele>748.0</ele><time>2026-04-04T16:26:18.242Z</time></trkpt><trkpt lat="40.643675" lon="-3.3056683"><ele>748.1666666666667</ele><time>2026-04-04T16:26:19.242Z</time></trkpt><trkpt lat="40.643605" lon="-3.3057267"><ele>748.3333333333334</ele><time>2026-04-04T16:26:20.242Z</time></trkpt><trkpt lat="40.6435383" lon="-3.3057833"><ele>748.5</ele><time>2026-04-04T16:26:21.242Z</time></trkpt><trkpt lat="40.6434783" lon="-3.30585"><ele>748.6666666666666</ele><time>2026-04-04T16:26:22.242Z</time></trkpt><trkpt lat="40.6434167" lon="-3.305915"><ele>748.8333333333333</ele><time>2026-04-04T16:26:23.242Z</time></trkpt><trkpt lat="40.643355" lon="-3.3059883"><ele>749.0</ele><time>2026-04-04T16:26:24.243Z</time></trkpt><trkpt lat="40.6432883" lon="-3.3060533"><ele>749.0</ele><time>2026-04-04T16:26:25.242Z</time></trkpt><trkpt lat="40.6432283" lon="-3.30611"><ele>749.0</ele><time>2026-04-04T16:26:26.242Z</time></trkpt><trkpt lat="40.6431567" lon="-3.3061733"><ele>749.0</ele><time>2026-04-04T16:26:27.242Z</time></trkpt><trkpt lat="40.6430867" lon="-3.3062217"><ele>749.0</ele><time>2026-04-04T16:26:28.242Z</time></trkpt><trkpt lat="40.643005" lon="-3.306295"><ele>749.0</ele><time>2026-04-04T16:26:30.242Z</time></trkpt><trkpt lat="40.6429433" lon="-3.3063817"><ele>749.0</ele><time>2026-04-04T16:26:32.242Z</time></trkpt><trkpt lat="40.6428383" lon="-3.30645"><ele>748.6666666666666</ele><time>2026-04-04T16:26:34.242Z</time></trkpt><trkpt lat="40.6427767" lon="-3.30647"><ele>748.3333333333333</ele><time>2026-04-04T16:26:35.242Z</time></trkpt><trkpt lat="40.642705" lon="-3.306485"><ele>748.0</ele><time>2026-04-04T16:26:36.242Z</time></trkpt><trkpt lat="40.6426267" lon="-3.306515"><ele>747.6666666666666</ele><time>2026-04-04T16:26:37.242Z</time></trkpt><trkpt lat="40.6425633" lon="-3.306545"><ele>747.3333333333334</ele><time>2026-04-04T16:26:38.243Z</time></trkpt><trkpt lat="40.64246" lon="-3.30663"><ele>747.0</ele><time>2026-04-04T16:26:40.243Z</time></trkpt><trkpt lat="40.6424183" lon="-3.3066933"><ele>747.0</ele><time>2026-04-04T16:26:41.242Z</time></trkpt><trkpt lat="40.6423767" lon="-3.3067567"><ele>747.0</ele><time>2026-04-04T16:26:42.242Z</time></trkpt><trkpt lat="40.6423283" lon="-3.3068117"><ele>747.0</ele><time>2026-04-04T16:26:43.243Z</time></trkpt><trkpt lat="40.642275" lon="-3.3068583"><ele>747.0</ele><time>2026-04-04T16:26:44.242Z</time></trkpt><trkpt lat="40.6422017" lon="-3.30691"><ele>747.0</ele><time>2026-04-04T16:26:45.242Z</time></trkpt><trkpt lat="40.6421033" lon="-3.3069633"><ele>747.0</ele><time>2026-04-04T16:26:46.242Z</time></trkpt><trkpt lat="40.642" lon="-3.3070117"><ele>746.6666666666666</ele><time>2026-04-04T16:26:47.243Z</time></trkpt><trkpt lat="40.64191" lon="-3.307045"><ele>746.3333333333334</ele><time>2026-04-04T16:26:48.242Z</time></trkpt><trkpt lat="40.6418317" lon="-3.30707"><ele>746.0</ele><time>2026-04-04T16:26:49.242Z</time></trkpt><trkpt lat="40.6417583" lon="-3.3070883"><ele>745.6666666666667</ele><time>2026-04-04T16:26:50.242Z</time></trkpt><trkpt lat="40.6416867" lon="-3.3071167"><ele>745.3333333333334</ele><time>2026-04-04T16:26:51.242Z</time></trkpt><trkpt lat="40.64162" lon="-3.30715"><ele>745.0</ele><time>2026-04-04T16:26:52.242Z</time></trkpt><trkpt lat="40.6415633" lon="-3.3071983"><ele>744.8333333333334</ele><time>2026-04-04T16:26:53.242Z</time></trkpt><trkpt lat="40.64147" lon="-3.3073"><ele>744.6666666666667</ele><time>2026-04-04T16:26:55.242Z</time></trkpt><trkpt lat="40.641405" lon="-3.3073533"><ele>744.5</ele><time>2026-04-04T16:26:56.243Z</time></trkpt><trkpt lat="40.6413317" lon="-3.307405"><ele>744.3333333333334</ele><time>2026-04-04T16:26:57.242Z</time></trkpt><trkpt lat="40.6412633" lon="-3.307425"><ele>744.1666666666666</ele><time>2026-04-04T16:26:58.242Z</time></trkpt><trkpt lat="40.6411933" lon="-3.3074433"><ele>744.0</ele><time>2026-04-04T16:26:59.242Z</time></trkpt><trkpt lat="40.641125" lon="-3.3074667"><ele>744.0</ele><time>2026-04-04T16:27:00.242Z</time></trkpt><trkpt lat="40.6410333" lon="-3.3075417"><ele>744.0</ele><time>2026-04-04T16:27:02.242Z</time></trkpt><trkpt lat="40.6409533" lon="-3.3076317"><ele>744.0</ele><time>2026-04-04T16:27:04.242Z</time></trkpt><trkpt lat="40.6408567" lon="-3.30771"><ele>744.0</ele><time>2026-04-04T16:27:06.242Z</time></trkpt><trkpt lat="40.6407717" lon="-3.3077733"><ele>744.0</ele><time>2026-04-04T16:27:08.241Z</time></trkpt><trkpt lat="40.640685" lon="-3.307855"><ele>744.0</ele><time>2026-04-04T16:27:10.241Z</time></trkpt><trkpt lat="40.6406333" lon="-3.3079233"><ele>744.0</ele><time>2026-04-04T16:27:11.242Z</time></trkpt><trkpt lat="40.64057" lon="-3.3080117"><ele>744.0</ele><time>2026-04-04T16:27:12.241Z</time></trkpt><trkpt lat="40.640505" lon="-3.3081017"><ele>744.0</ele><time>2026-04-04T16:27:13.241Z</time></trkpt><trkpt lat="40.64045" lon="-3.3081817"><ele>744.0</ele><time>2026-04-04T16:27:14.241Z</time></trkpt><trkpt lat="40.6403917" lon="-3.308265"><ele>744.0</ele><time>2026-04-04T16:27:15.241Z</time></trkpt><trkpt lat="40.6403433" lon="-3.30835"><ele>743.8333333333334</ele><time>2026-04-04T16:27:16.242Z</time></trkpt><trkpt lat="40.6403017" lon="-3.3084317"><ele>743.6666666666666</ele><time>2026-04-04T16:27:17.241Z</time></trkpt><trkpt lat="40.64026" lon="-3.308525"><ele>743.5</ele><time>2026-04-04T16:27:18.241Z</time></trkpt><trkpt lat="40.64021" lon="-3.3086167"><ele>743.3333333333333</ele><time>2026-04-04T16:27:19.242Z</time></trkpt><trkpt lat="40.640145" lon="-3.3087233"><ele>743.1666666666666</ele><time>2026-04-04T16:27:20.241Z</time></trkpt><trkpt lat="40.6400783" lon="-3.3088233"><ele>743.0</ele><time>2026-04-04T16:27:21.241Z</time></trkpt><trkpt lat="40.6400233" lon="-3.3089083"><ele>743.4285714285714</ele><time>2026-04-04T16:27:22.241Z</time></trkpt><trkpt lat="40.639975" lon="-3.3089767"><ele>743.8571428571428</ele><time>2026-04-04T16:27:23.241Z</time></trkpt><trkpt lat="40.63993" lon="-3.3090483"><ele>744.2857142857142</ele><time>2026-04-04T16:27:24.241Z</time></trkpt><trkpt lat="40.6398867" lon="-3.3091333"><ele>744.7142857142858</ele><time>2026-04-04T16:27:25.241Z</time></trkpt><trkpt lat="40.6398383" lon="-3.3092067"><ele>745.1428571428571</ele><time>2026-04-04T16:27:26.241Z</time></trkpt><trkpt lat="40.6397833" lon="-3.309275"><ele>745.5714285714286</ele><time>2026-04-04T16:27:27.241Z</time></trkpt><trkpt lat="40.6397217" lon="-3.30932"><ele>746.0</ele><time>2026-04-04T16:27:28.241Z</time></trkpt><trkpt lat="40.63962" lon="-3.3093883"><ele>746.0</ele><time>2026-04-04T16:27:30.241Z</time></trkpt><trkpt lat="40.6395217" lon="-3.30944"><ele>746.0</ele><time>2026-04-04T16:27:32.241Z</time></trkpt><trkpt lat="40.6394567" lon="-3.3094717"><ele>746.0</ele><time>2026-04-04T16:27:33.241Z</time></trkpt><trkpt lat="40.6393917" lon="-3.30951"><ele>746.0</ele><time>2026-04-04T16:27:34.241Z</time></trkpt><trkpt lat="40.6393233" lon="-3.3095633"><ele>746.0</ele><time>2026-04-04T16:27:35.241Z</time></trkpt><trkpt lat="40.6392383" lon="-3.3096283"><ele>746.0</ele><time>2026-04-04T16:27:36.241Z</time></trkpt><trkpt lat="40.6391533" lon="-3.3096967"><ele>745.1666666666666</ele><time>2026-04-04T16:27:37.241Z</time></trkpt><trkpt lat="40.6390717" lon="-3.30977"><ele>744.3333333333333</ele><time>2026-04-04T16:27:38.241Z</time></trkpt><trkpt lat="40.6389967" lon="-3.3098283"><ele>743.5</ele><time>2026-04-04T16:27:39.241Z</time></trkpt><trkpt lat="40.6389367" lon="-3.309875"><ele>742.6666666666666</ele><time>2026-04-04T16:27:40.241Z</time></trkpt><trkpt lat="40.6388833" lon="-3.309935"><ele>741.8333333333334</ele><time>2026-04-04T16:27:41.241Z</time></trkpt><trkpt lat="40.6388233" lon="-3.31001"><ele>741.0</ele><time>2026-04-04T16:27:42.241Z</time></trkpt><trkpt lat="40.638765" lon="-3.3100983"><ele>741.0</ele><time>2026-04-04T16:27:43.241Z</time></trkpt><trkpt lat="40.6387083" lon="-3.3101833"><ele>741.0</ele><time>2026-04-04T16:27:44.241Z</time></trkpt><trkpt lat="40.6386517" lon="-3.31025"><ele>741.0</ele><time>2026-04-04T16:27:45.241Z</time></trkpt><trkpt lat="40.6386" lon="-3.3103083"><ele>741.0</ele><time>2026-04-04T16:27:46.241Z</time></trkpt><trkpt lat="40.6385517" lon="-3.3103717"><ele>741.0</ele><time>2026-04-04T16:27:47.241Z</time></trkpt><trkpt lat="40.638505" lon="-3.3104433"><ele>741.0</ele><time>2026-04-04T16:27:48.242Z</time></trkpt><trkpt lat="40.6384733" lon="-3.310535"><ele>741.0</ele><time>2026-04-04T16:27:49.241Z</time></trkpt><trkpt lat="40.6384533" lon="-3.3106433"><ele>740.8333333333334</ele><time>2026-04-04T16:27:50.241Z</time></trkpt><trkpt lat="40.6384367" lon="-3.310745"><ele>740.6666666666666</ele><time>2026-04-04T16:27:51.241Z</time></trkpt><trkpt lat="40.638415" lon="-3.3108517"><ele>740.5</ele><time>2026-04-04T16:27:52.241Z</time></trkpt><trkpt lat="40.6383883" lon="-3.310955"><ele>740.3333333333333</ele><time>2026-04-04T16:27:53.241Z</time></trkpt><trkpt lat="40.6383583" lon="-3.311065"><ele>740.1666666666666</ele><time>2026-04-04T16:27:54.241Z</time></trkpt><trkpt lat="40.638325" lon="-3.311175"><ele>740.0</ele><time>2026-04-04T16:27:55.241Z</time></trkpt><trkpt lat="40.63829" lon="-3.311255"><ele>740.0</ele><time>2026-04-04T16:27:56.241Z</time></trkpt><trkpt lat="40.6382517" lon="-3.311325"><ele>740.0</ele><time>2026-04-04T16:27:57.242Z</time></trkpt><trkpt lat="40.638175" lon="-3.3114367"><ele>740.0</ele><time>2026-04-04T16:27:59.241Z</time></trkpt><trkpt lat="40.6380517" lon="-3.31151"><ele>740.0</ele><time>2026-04-04T16:28:01.242Z</time></trkpt><trkpt lat="40.6379867" lon="-3.3115517"><ele>740.0</ele><time>2026-04-04T16:28:02.241Z</time></trkpt><trkpt lat="40.6379267" lon="-3.3115817"><ele>739.6</ele><time>2026-04-04T16:28:03.241Z</time></trkpt><trkpt lat="40.637835" lon="-3.3116367"><ele>739.2</ele><time>2026-04-04T16:28:05.241Z</time></trkpt><trkpt lat="40.6377633" lon="-3.3117033"><ele>738.8</ele><time>2026-04-04T16:28:07.241Z</time></trkpt><trkpt lat="40.637695" lon="-3.3117917"><ele>738.4</ele><time>2026-04-04T16:28:09.241Z</time></trkpt><trkpt lat="40.6376167" lon="-3.3119283"><ele>738.0</ele><time>2026-04-04T16:28:11.241Z</time></trkpt><trkpt lat="40.6375683" lon="-3.3120183"><ele>737.8333333333334</ele><time>2026-04-04T16:28:12.241Z</time></trkpt><trkpt lat="40.6375183" lon="-3.3121167"><ele>737.6666666666666</ele><time>2026-04-04T16:28:13.241Z</time></trkpt><trkpt lat="40.63746" lon="-3.3122233"><ele>737.5</ele><time>2026-04-04T16:28:14.241Z</time></trkpt><trkpt lat="40.637405" lon="-3.31231"><ele>737.3333333333333</ele><time>2026-04-04T16:28:15.241Z</time></trkpt><trkpt lat="40.63735" lon="-3.3123933"><ele>737.1666666666666</ele><time>2026-04-04T16:28:16.241Z</time></trkpt><trkpt lat="40.63729" lon="-3.3124817"><ele>737.0</ele><time>2026-04-04T16:28:17.241Z</time></trkpt><trkpt lat="40.637245" lon="-3.3125617"><ele>736.4000000000001</ele><time>2026-04-04T16:28:18.241Z</time></trkpt><trkpt lat="40.6372067" lon="-3.3126333"><ele>735.8000000000001</ele><time>2026-04-04T16:28:19.241Z</time></trkpt><trkpt lat="40.63717" lon="-3.31276"><ele>735.2</ele><time>2026-04-04T16:28:21.241Z</time></trkpt><trkpt lat="40.6371267" lon="-3.3128967"><ele>734.6</ele><time>2026-04-04T16:28:23.241Z</time></trkpt><trkpt lat="40.6371017" lon="-3.3130233"><ele>734.0</ele><time>2026-04-04T16:28:25.241Z</time></trkpt><trkpt lat="40.6371217" lon="-3.31313"><ele>734.0</ele><time>2026-04-04T16:28:27.242Z</time></trkpt><trkpt lat="40.6371583" lon="-3.3132083"><ele>734.0</ele><time>2026-04-04T16:28:29.241Z</time></trkpt><trkpt lat="40.6372083" lon="-3.3132833"><ele>734.0</ele><time>2026-04-04T16:28:31.241Z</time></trkpt><trkpt lat="40.6372517" lon="-3.3133467"><ele>734.0</ele><time>2026-04-04T16:28:33.241Z</time></trkpt><trkpt lat="40.6372117" lon="-3.3134433"><ele>734.0</ele><time>2026-04-04T16:29:07.241Z</time></trkpt><trkpt lat="40.6372667" lon="-3.3136033"><ele>734.0</ele><time>2026-04-04T16:29:18.241Z</time></trkpt><trkpt lat="40.637315" lon="-3.3136567"><ele>734.0</ele><time>2026-04-04T16:29:19.241Z</time></trkpt><trkpt lat="40.6373683" lon="-3.3137183"><ele>734.0</ele><time>2026-04-04T16:29:20.241Z</time></trkpt><trkpt lat="40.6374233" lon="-3.3137867"><ele>734.0</ele><time>2026-04-04T16:29:21.241Z</time></trkpt><trkpt lat="40.6374767" lon="-3.3138567"><ele>734.0</ele><time>2026-04-04T16:29:22.241Z</time></trkpt><trkpt lat="40.637535" lon="-3.31392"><ele>734.0</ele><time>2026-04-04T16:29:23.241Z</time></trkpt><trkpt lat="40.6375883" lon="-3.3139783"><ele>734.0</ele><time>2026-04-04T16:29:24.241Z</time></trkpt><trkpt lat="40.6376633" lon="-3.3140517"><ele>734.0</ele><time>2026-04-04T16:29:25.241Z</time></trkpt><trkpt lat="40.6377383" lon="-3.31413"><ele>734.0</ele><time>2026-04-04T16:29:26.241Z</time></trkpt><trkpt lat="40.6377983" lon="-3.3142067"><ele>734.0</ele><time>2026-04-04T16:29:27.242Z</time></trkpt><trkpt lat="40.637855" lon="-3.3142833"><ele>734.0</ele><time>2026-04-04T16:29:28.241Z</time></trkpt><trkpt lat="40.6379133" lon="-3.3143667"><ele>734.0</ele><time>2026-04-04T16:29:29.241Z</time></trkpt><trkpt lat="40.6379733" lon="-3.31445"><ele>734.0</ele><time>2026-04-04T16:29:30.241Z</time></trkpt><trkpt lat="40.6380317" lon="-3.3145333"><ele>734.6</ele><time>2026-04-04T16:29:31.242Z</time></trkpt><trkpt lat="40.6380917" lon="-3.3146083"><ele>735.2</ele><time>2026-04-04T16:29:32.241Z</time></trkpt><trkpt lat="40.6381583" lon="-3.314695"><ele>735.8000000000001</ele><time>2026-04-04T16:29:33.242Z</time></trkpt><trkpt lat="40.6382317" lon="-3.3148033"><ele>736.4000000000001</ele><time>2026-04-04T16:29:34.241Z</time></trkpt><trkpt lat="40.6383133" lon="-3.3149083"><ele>737.0</ele><time>2026-04-04T16:29:35.241Z</time></trkpt><trkpt lat="40.6383833" lon="-3.315"><ele>737.0</ele><time>2026-04-04T16:29:36.241Z</time></trkpt><trkpt lat="40.6384567" lon="-3.3151"><ele>737.0</ele><time>2026-04-04T16:29:37.241Z</time></trkpt><trkpt lat="40.63854" lon="-3.3152017"><ele>737.0</ele><time>2026-04-04T16:29:38.241Z</time></trkpt><trkpt lat="40.6386433" lon="-3.315325"><ele>737.0</ele><time>2026-04-04T16:29:39.241Z</time></trkpt><trkpt lat="40.63874" lon="-3.31546"><ele>737.5</ele><time>2026-04-04T16:29:40.241Z</time></trkpt><trkpt lat="40.6388333" lon="-3.315585"><ele>738.0</ele><time>2026-04-04T16:29:41.241Z</time></trkpt><trkpt lat="40.6389183" lon="-3.3156917"><ele>738.5</ele><time>2026-04-04T16:29:42.241Z</time></trkpt><trkpt lat="40.639005" lon="-3.31579"><ele>739.0</ele><time>2026-04-04T16:29:43.242Z</time></trkpt><trkpt lat="40.639085" lon="-3.315885"><ele>739.0</ele><time>2026-04-04T16:29:44.242Z</time></trkpt><trkpt lat="40.6391667" lon="-3.315985"><ele>739.0</ele><time>2026-04-04T16:29:45.241Z</time></trkpt><trkpt lat="40.6392317" lon="-3.3160783"><ele>739.0</ele><time>2026-04-04T16:29:46.241Z</time></trkpt><trkpt lat="40.639295" lon="-3.3161567"><ele>739.0</ele><time>2026-04-04T16:29:47.242Z</time></trkpt><trkpt lat="40.6393567" lon="-3.3162317"><ele>739.0</ele><time>2026-04-04T16:29:48.242Z</time></trkpt><trkpt lat="40.6394083" lon="-3.3163083"><ele>739.0</ele><time>2026-04-04T16:29:49.241Z</time></trkpt><trkpt lat="40.6394583" lon="-3.31637"><ele>739.0</ele><time>2026-04-04T16:29:50.241Z</time></trkpt><trkpt lat="40.63955" lon="-3.3164517"><ele>739.0</ele><time>2026-04-04T16:29:52.241Z</time></trkpt><trkpt lat="40.6396183" lon="-3.3164533"><ele>739.0</ele><time>2026-04-04T16:29:54.241Z</time></trkpt><trkpt lat="40.6397283" lon="-3.3164067"><ele>739.0</ele><time>2026-04-04T16:29:56.241Z</time></trkpt><trkpt lat="40.6398217" lon="-3.3163567"><ele>739.8000000000001</ele><time>2026-04-04T16:29:57.241Z</time></trkpt><trkpt lat="40.6399417" lon="-3.3162983"><ele>740.6</ele><time>2026-04-04T16:29:58.241Z</time></trkpt><trkpt lat="40.6400583" lon="-3.31625"><ele>741.4</ele><time>2026-04-04T16:29:59.241Z</time></trkpt><trkpt lat="40.64016" lon="-3.3162167"><ele>742.2</ele><time>2026-04-04T16:30:00.241Z</time></trkpt><trkpt lat="40.6402467" lon="-3.31617"><ele>743.0</ele><time>2026-04-04T16:30:01.241Z</time></trkpt><trkpt lat="40.64034" lon="-3.31613"><ele>744.2</ele><time>2026-04-04T16:30:02.241Z</time></trkpt><trkpt lat="40.64044" lon="-3.3160917"><ele>745.4</ele><time>2026-04-04T16:30:03.242Z</time></trkpt><trkpt lat="40.640535" lon="-3.316065"><ele>746.6</ele><time>2026-04-04T16:30:04.241Z</time></trkpt><trkpt lat="40.640625" lon="-3.316045"><ele>747.8000000000001</ele><time>2026-04-04T16:30:05.241Z</time></trkpt><trkpt lat="40.6407117" lon="-3.3160317"><ele>749.0</ele><time>2026-04-04T16:30:06.241Z</time></trkpt><trkpt lat="40.640795" lon="-3.3160267"><ele>749.0</ele><time>2026-04-04T16:30:07.241Z</time></trkpt><trkpt lat="40.6408683" lon="-3.3160417"><ele>749.0</ele><time>2026-04-04T16:30:08.241Z</time></trkpt><trkpt lat="40.6409417" lon="-3.3160717"><ele>749.0</ele><time>2026-04-04T16:30:09.241Z</time></trkpt><trkpt lat="40.64102" lon="-3.3161133"><ele>749.0</ele><time>2026-04-04T16:30:10.241Z</time></trkpt><trkpt lat="40.6411017" lon="-3.3161817"><ele>749.0</ele><time>2026-04-04T16:30:11.241Z</time></trkpt><trkpt lat="40.64119" lon="-3.316265"><ele>749.0</ele><time>2026-04-04T16:30:12.241Z</time></trkpt><trkpt lat="40.64128" lon="-3.3163467"><ele>750.25</ele><time>2026-04-04T16:30:13.241Z</time></trkpt><trkpt lat="40.6413767" lon="-3.3164183"><ele>751.5</ele><time>2026-04-04T16:30:14.241Z</time></trkpt><trkpt lat="40.6414833" lon="-3.3164767"><ele>752.75</ele><time>2026-04-04T16:30:15.241Z</time></trkpt><trkpt lat="40.641595" lon="-3.316505"><ele>754.0</ele><time>2026-04-04T16:30:16.241Z</time></trkpt><trkpt lat="40.641715" lon="-3.316525"><ele>754.0</ele><time>2026-04-04T16:30:17.241Z</time></trkpt><trkpt lat="40.6418267" lon="-3.3165283"><ele>754.0</ele><time>2026-04-04T16:30:18.241Z</time></trkpt><trkpt lat="40.6419233" lon="-3.3165267"><ele>754.0</ele><time>2026-04-04T16:30:19.241Z</time></trkpt><trkpt lat="40.6420183" lon="-3.3165217"><ele>754.0</ele><time>2026-04-04T16:30:20.241Z</time></trkpt><trkpt lat="40.6421217" lon="-3.31651"><ele>754.0</ele><time>2026-04-04T16:30:21.241Z</time></trkpt><trkpt lat="40.6422217" lon="-3.3164833"><ele>754.6</ele><time>2026-04-04T16:30:22.242Z</time></trkpt><trkpt lat="40.64233" lon="-3.31647"><ele>755.2</ele><time>2026-04-04T16:30:23.242Z</time></trkpt><trkpt lat="40.64243" lon="-3.3164483"><ele>755.8000000000001</ele><time>2026-04-04T16:30:24.241Z</time></trkpt><trkpt lat="40.64252" lon="-3.316415"><ele>756.4000000000001</ele><time>2026-04-04T16:30:25.241Z</time></trkpt><trkpt lat="40.6426133" lon="-3.3163917"><ele>757.0</ele><time>2026-04-04T16:30:26.241Z</time></trkpt><trkpt lat="40.6427133" lon="-3.3163567"><ele>758.2</ele><time>2026-04-04T16:30:27.241Z</time></trkpt><trkpt lat="40.6428167" lon="-3.316315"><ele>759.4000000000001</ele><time>2026-04-04T16:30:28.241Z</time></trkpt><trkpt lat="40.642925" lon="-3.316265"><ele>760.5999999999999</ele><time>2026-04-04T16:30:29.241Z</time></trkpt><trkpt lat="40.6430283" lon="-3.31621"><ele>761.8</ele><time>2026-04-04T16:30:30.241Z</time></trkpt><trkpt lat="40.6431283" lon="-3.3161433"><ele>763.0</ele><time>2026-04-04T16:30:31.241Z</time></trkpt><trkpt lat="40.6432367" lon="-3.3160633"><ele>763.0</ele><time>2026-04-04T16:30:32.241Z</time></trkpt><trkpt lat="40.6433733" lon="-3.3159683"><ele>763.0</ele><time>2026-04-04T16:30:33.241Z</time></trkpt><trkpt lat="40.64353" lon="-3.3158633"><ele>763.0</ele><time>2026-04-04T16:30:34.242Z</time></trkpt><trkpt lat="40.6436817" lon="-3.3157467"><ele>763.25</ele><time>2026-04-04T16:30:35.241Z</time></trkpt><trkpt lat="40.643815" lon="-3.3156583"><ele>763.5</ele><time>2026-04-04T16:30:36.242Z</time></trkpt><trkpt lat="40.643925" lon="-3.3155817"><ele>763.75</ele><time>2026-04-04T16:30:37.241Z</time></trkpt><trkpt lat="40.6440133" lon="-3.3155233"><ele>764.0</ele><time>2026-04-04T16:30:38.241Z</time></trkpt><trkpt lat="40.6440883" lon="-3.3154717"><ele>764.3333333333333</ele><time>2026-04-04T16:30:39.241Z</time></trkpt><trkpt lat="40.6441617" lon="-3.3154333"><ele>764.6666666666666</ele><time>2026-04-04T16:30:40.241Z</time></trkpt><trkpt lat="40.64423" lon="-3.3154083"><ele>765.0</ele><time>2026-04-04T16:30:41.241Z</time></trkpt><trkpt lat="40.6442983" lon="-3.315395"><ele>765.3333333333334</ele><time>2026-04-04T16:30:42.241Z</time></trkpt><trkpt lat="40.6443983" lon="-3.3153883"><ele>765.6666666666667</ele><time>2026-04-04T16:30:44.241Z</time></trkpt><trkpt lat="40.6445067" lon="-3.315435"><ele>766.0</ele><time>2026-04-04T16:30:46.241Z</time></trkpt><trkpt lat="40.6445733" lon="-3.3154683"><ele>766.5</ele><time>2026-04-04T16:30:47.241Z</time></trkpt><trkpt lat="40.6446483" lon="-3.3155017"><ele>767.0</ele><time>2026-04-04T16:30:48.241Z</time></trkpt><trkpt lat="40.6447267" lon="-3.31553"><ele>767.5</ele><time>2026-04-04T16:30:49.241Z</time></trkpt><trkpt lat="40.644805" lon="-3.31554"><ele>768.0</ele><time>2026-04-04T16:30:50.241Z</time></trkpt><trkpt lat="40.644895" lon="-3.3155367"><ele>768.4999999999999</ele><time>2026-04-04T16:30:51.241Z</time></trkpt><trkpt lat="40.644985" lon="-3.315525"><ele>769.0</ele><time>2026-04-04T16:30:52.242Z</time></trkpt><trkpt lat="40.6450817" lon="-3.31551"><ele>769.0</ele><time>2026-04-04T16:30:53.241Z</time></trkpt><trkpt lat="40.6451967" lon="-3.3154783"><ele>769.0</ele><time>2026-04-04T16:30:54.241Z</time></trkpt><trkpt lat="40.6453167" lon="-3.3154383"><ele>769.0</ele><time>2026-04-04T16:30:55.241Z</time></trkpt><trkpt lat="40.645425" lon="-3.3153933"><ele>769.0</ele><time>2026-04-04T16:30:56.241Z</time></trkpt><trkpt lat="40.6455467" lon="-3.31534"><ele>769.0</ele><time>2026-04-04T16:30:57.241Z</time></trkpt><trkpt lat="40.6456767" lon="-3.315275"><ele>769.0</ele><time>2026-04-04T16:30:58.241Z</time></trkpt><trkpt lat="40.6458167" lon="-3.3151983"><ele>769.0</ele><time>2026-04-04T16:30:59.241Z</time></trkpt><trkpt lat="40.6459533" lon="-3.315115"><ele>769.0</ele><time>2026-04-04T16:31:00.241Z</time></trkpt><trkpt lat="40.6460883" lon="-3.3150283"><ele>768.25</ele><time>2026-04-04T16:31:01.241Z</time></trkpt><trkpt lat="40.6462167" lon="-3.3149533"><ele>767.5</ele><time>2026-04-04T16:31:02.241Z</time></trkpt><trkpt lat="40.6463433" lon="-3.314895"><ele>766.75</ele><time>2026-04-04T16:31:03.241Z</time></trkpt><trkpt lat="40.64647" lon="-3.314845"><ele>766.0</ele><time>2026-04-04T16:31:04.242Z</time></trkpt><trkpt lat="40.6465833" lon="-3.3147933"><ele>766.0</ele><time>2026-04-04T16:31:05.241Z</time></trkpt><trkpt lat="40.6466767" lon="-3.3147467"><ele>766.0</ele><time>2026-04-04T16:31:06.241Z</time></trkpt><trkpt lat="40.6467583" lon="-3.3147083"><ele>766.0</ele><time>2026-04-04T16:31:07.241Z</time></trkpt><trkpt lat="40.6468383" lon="-3.3146633"><ele>766.0</ele><time>2026-04-04T16:31:08.241Z</time></trkpt><trkpt lat="40.6469333" lon="-3.314605"><ele>766.0</ele><time>2026-04-04T16:31:09.241Z</time></trkpt><trkpt lat="40.647025" lon="-3.31455"><ele>766.5999999999999</ele><time>2026-04-04T16:31:10.241Z</time></trkpt><trkpt lat="40.6471133" lon="-3.3145067"><ele>767.2</ele><time>2026-04-04T16:31:11.241Z</time></trkpt><trkpt lat="40.6472017" lon="-3.314465"><ele>767.8</ele><time>2026-04-04T16:31:12.241Z</time></trkpt><trkpt lat="40.6472917" lon="-3.3144317"><ele>768.4000000000001</ele><time>2026-04-04T16:31:13.241Z</time></trkpt><trkpt lat="40.6473833" lon="-3.314415"><ele>769.0</ele><time>2026-04-04T16:31:14.241Z</time></trkpt><trkpt lat="40.6474683" lon="-3.3144167"><ele>769.0</ele><time>2026-04-04T16:31:15.241Z</time></trkpt><trkpt lat="40.64756" lon="-3.31443"><ele>769.0</ele><time>2026-04-04T16:31:16.241Z</time></trkpt><trkpt lat="40.64767" lon="-3.3144517"><ele>769.0</ele><time>2026-04-04T16:31:17.241Z</time></trkpt><trkpt lat="40.647785" lon="-3.3144633"><ele>769.0</ele><time>2026-04-04T16:31:18.241Z</time></trkpt><trkpt lat="40.6478983" lon="-3.3144533"><ele>769.0</ele><time>2026-04-04T16:31:19.241Z</time></trkpt><trkpt lat="40.6480133" lon="-3.3144433"><ele>768.2</ele><time>2026-04-04T16:31:20.241Z</time></trkpt><trkpt lat="40.648125" lon="-3.3144417"><ele>767.4000000000001</ele><time>2026-04-04T16:31:21.241Z</time></trkpt><trkpt lat="40.6482283" lon="-3.3144533"><ele>766.6</ele><time>2026-04-04T16:31:22.241Z</time></trkpt><trkpt lat="40.64832" lon="-3.314455"><ele>765.8</ele><time>2026-04-04T16:31:23.241Z</time></trkpt><trkpt lat="40.6483983" lon="-3.31445"><ele>765.0</ele><time>2026-04-04T16:31:24.241Z</time></trkpt><trkpt lat="40.6484717" lon="-3.3144433"><ele>765.0</ele><time>2026-04-04T16:31:25.241Z</time></trkpt><trkpt lat="40.64855" lon="-3.3144383"><ele>765.0</ele><time>2026-04-04T16:31:26.241Z</time></trkpt><trkpt lat="40.6486417" lon="-3.3144283"><ele>765.0</ele><time>2026-04-04T16:31:27.241Z</time></trkpt><trkpt lat="40.6487367" lon="-3.3144217"><ele>765.0</ele><time>2026-04-04T16:31:28.241Z</time></trkpt><trkpt lat="40.6488217" lon="-3.3144083"><ele>765.0</ele><time>2026-04-04T16:31:29.241Z</time></trkpt><trkpt lat="40.648905" lon="-3.3143917"><ele>765.0</ele><time>2026-04-04T16:31:30.242Z</time></trkpt><trkpt lat="40.6489883" lon="-3.3143717"><ele>764.6666666666666</ele><time>2026-04-04T16:31:31.241Z</time></trkpt><trkpt lat="40.6490733" lon="-3.3143383"><ele>764.3333333333334</ele><time>2026-04-04T16:31:32.241Z</time></trkpt><trkpt lat="40.6491517" lon="-3.3142917"><ele>764.0</ele><time>2026-04-04T16:31:33.241Z</time></trkpt><trkpt lat="40.6492167" lon="-3.3142467"><ele>763.6666666666667</ele><time>2026-04-04T16:31:34.24Z</time></trkpt><trkpt lat="40.649285" lon="-3.3142"><ele>763.3333333333334</ele><time>2026-04-04T16:31:35.24Z</time></trkpt><trkpt lat="40.64935" lon="-3.3141433"><ele>763.0</ele><time>2026-04-04T16:31:36.241Z</time></trkpt><trkpt lat="40.649415" lon="-3.3140833"><ele>763.0</ele><time>2026-04-04T16:31:37.24Z</time></trkpt><trkpt lat="40.6494683" lon="-3.3140317"><ele>763.0</ele><time>2026-04-04T16:31:38.24Z</time></trkpt><trkpt lat="40.6495283" lon="-3.31399"><ele>763.0</ele><time>2026-04-04T16:31:39.24Z</time></trkpt><trkpt lat="40.6496367" lon="-3.3139117"><ele>763.0</ele><time>2026-04-04T16:31:41.24Z</time></trkpt><trkpt lat="40.6497233" lon="-3.3138183"><ele>763.0</ele><time>2026-04-04T16:31:43.24Z</time></trkpt><trkpt lat="40.6498117" lon="-3.313755"><ele>763.0</ele><time>2026-04-04T16:31:45.24Z</time></trkpt><trkpt lat="40.6498817" lon="-3.3136933"><ele>763.0</ele><time>2026-04-04T16:31:47.241Z</time></trkpt><trkpt lat="40.6499267" lon="-3.313635"><ele>763.0</ele><time>2026-04-04T16:31:48.24Z</time></trkpt><trkpt lat="40.6499767" lon="-3.3135733"><ele>763.0</ele><time>2026-04-04T16:31:49.24Z</time></trkpt><trkpt lat="40.650035" lon="-3.3134917"><ele>763.0</ele><time>2026-04-04T16:31:51.24Z</time></trkpt><trkpt lat="40.6501017" lon="-3.3134"><ele>763.0</ele><time>2026-04-04T16:31:53.241Z</time></trkpt><trkpt lat="40.6501683" lon="-3.3133183"><ele>763.0</ele><time>2026-04-04T16:31:55.24Z</time></trkpt><trkpt lat="40.6502417" lon="-3.3132467"><ele>763.0</ele><time>2026-04-04T16:31:57.24Z</time></trkpt><trkpt lat="40.6503317" lon="-3.3132033"><ele>763.0</ele><time>2026-04-04T16:31:59.24Z</time></trkpt><trkpt lat="40.6504567" lon="-3.3131933"><ele>763.0</ele><time>2026-04-04T16:32:01.24Z</time></trkpt><trkpt lat="40.65056" lon="-3.3131967"><ele>763.0</ele><time>2026-04-04T16:32:02.24Z</time></trkpt><trkpt lat="40.65068" lon="-3.3131983"><ele>763.8</ele><time>2026-04-04T16:32:03.24Z</time></trkpt><trkpt lat="40.6507917" lon="-3.3131967"><ele>764.5999999999999</ele><time>2026-04-04T16:32:04.24Z</time></trkpt><trkpt lat="40.6508933" lon="-3.313195"><ele>765.4000000000001</ele><time>2026-04-04T16:32:05.24Z</time></trkpt><trkpt lat="40.6509983" lon="-3.3131983"><ele>766.2</ele><time>2026-04-04T16:32:06.24Z</time></trkpt><trkpt lat="40.651105" lon="-3.3132233"><ele>767.0</ele><time>2026-04-04T16:32:07.24Z</time></trkpt><trkpt lat="40.651225" lon="-3.313265"><ele>768.8</ele><time>2026-04-04T16:32:08.241Z</time></trkpt><trkpt lat="40.6513317" lon="-3.3133033"><ele>770.6</ele><time>2026-04-04T16:32:09.24Z</time></trkpt><trkpt lat="40.651415" lon="-3.3133333"><ele>772.4</ele><time>2026-04-04T16:32:10.24Z</time></trkpt><trkpt lat="40.6514883" lon="-3.3133417"><ele>774.1999999999999</ele><time>2026-04-04T16:32:11.24Z</time></trkpt><trkpt lat="40.6515717" lon="-3.31334"><ele>776.0</ele><time>2026-04-04T16:32:12.24Z</time></trkpt><trkpt lat="40.65168" lon="-3.3133333"><ele>776.0</ele><time>2026-04-04T16:32:13.24Z</time></trkpt><trkpt lat="40.651795" lon="-3.31332"><ele>776.0</ele><time>2026-04-04T16:32:14.24Z</time></trkpt><trkpt lat="40.6519183" lon="-3.3133083"><ele>776.0</ele><time>2026-04-04T16:32:15.241Z</time></trkpt><trkpt lat="40.6520317" lon="-3.313295"><ele>776.0</ele><time>2026-04-04T16:32:16.24Z</time></trkpt><trkpt lat="40.652125" lon="-3.3132783"><ele>776.0</ele><time>2026-04-04T16:32:17.24Z</time></trkpt><trkpt lat="40.6522033" lon="-3.3132733"><ele>777.5000000000001</ele><time>2026-04-04T16:32:18.24Z</time></trkpt><trkpt lat="40.65227" lon="-3.313265"><ele>779.0</ele><time>2026-04-04T16:32:19.24Z</time></trkpt><trkpt lat="40.6523817" lon="-3.3132517"><ele>780.5</ele><time>2026-04-04T16:32:21.24Z</time></trkpt><trkpt lat="40.6524667" lon="-3.3133033"><ele>782.0</ele><time>2026-04-04T16:32:23.24Z</time></trkpt><trkpt lat="40.652565" lon="-3.3133717"><ele>783.5000000000001</ele><time>2026-04-04T16:32:25.24Z</time></trkpt><trkpt lat="40.652625" lon="-3.3133983"><ele>785.0</ele><time>2026-04-04T16:32:26.24Z</time></trkpt><trkpt lat="40.65269" lon="-3.31341"><ele>785.0000000000001</ele><time>2026-04-04T16:32:27.24Z</time></trkpt><trkpt lat="40.6527633" lon="-3.31342"><ele>785.0</ele><time>2026-04-04T16:32:28.24Z</time></trkpt><trkpt lat="40.6528317" lon="-3.31341"><ele>785.0</ele><time>2026-04-04T16:32:29.24Z</time></trkpt><trkpt lat="40.6528917" lon="-3.313375"><ele>785.0</ele><time>2026-04-04T16:32:30.24Z</time></trkpt><trkpt lat="40.6529633" lon="-3.3133183"><ele>785.0000000000001</ele><time>2026-04-04T16:32:31.241Z</time></trkpt><trkpt lat="40.6530467" lon="-3.31325"><ele>785.0</ele><time>2026-04-04T16:32:32.24Z</time></trkpt><trkpt lat="40.6531367" lon="-3.3131833"><ele>786.0</ele><time>2026-04-04T16:32:33.24Z</time></trkpt><trkpt lat="40.653235" lon="-3.3131267"><ele>787.0</ele><time>2026-04-04T16:32:34.24Z</time></trkpt><trkpt lat="40.6533333" lon="-3.313075"><ele>788.0</ele><time>2026-04-04T16:32:35.241Z</time></trkpt><trkpt lat="40.6534267" lon="-3.3130233"><ele>789.0</ele><time>2026-04-04T16:32:36.24Z</time></trkpt><trkpt lat="40.6535133" lon="-3.31298"><ele>790.0</ele><time>2026-04-04T16:32:37.24Z</time></trkpt><trkpt lat="40.6535917" lon="-3.3129317"><ele>790.8571428571428</ele><time>2026-04-04T16:32:38.24Z</time></trkpt><trkpt lat="40.6536617" lon="-3.31289"><ele>791.7142857142858</ele><time>2026-04-04T16:32:39.24Z</time></trkpt><trkpt lat="40.6537283" lon="-3.3128467"><ele>792.5714285714286</ele><time>2026-04-04T16:32:40.24Z</time></trkpt><trkpt lat="40.6537883" lon="-3.312795"><ele>793.4285714285713</ele><time>2026-04-04T16:32:41.24Z</time></trkpt><trkpt lat="40.653845" lon="-3.3127533"><ele>794.2857142857142</ele><time>2026-04-04T16:32:42.24Z</time></trkpt><trkpt lat="40.6539067" lon="-3.3127133"><ele>795.1428571428571</ele><time>2026-04-04T16:32:43.24Z</time></trkpt><trkpt lat="40.6539717" lon="-3.312665"><ele>796.0</ele><time>2026-04-04T16:32:44.24Z</time></trkpt><trkpt lat="40.6540267" lon="-3.3126233"><ele>796.0</ele><time>2026-04-04T16:32:45.24Z</time></trkpt><trkpt lat="40.65413" lon="-3.3125283"><ele>796.0</ele><time>2026-04-04T16:32:47.24Z</time></trkpt><trkpt lat="40.654195" lon="-3.3124683"><ele>796.0</ele><time>2026-04-04T16:32:48.24Z</time></trkpt><trkpt lat="40.65426" lon="-3.31239"><ele>796.0</ele><time>2026-04-04T16:32:49.24Z</time></trkpt><trkpt lat="40.6543233" lon="-3.3123033"><ele>796.0</ele><time>2026-04-04T16:32:50.24Z</time></trkpt><trkpt lat="40.6543833" lon="-3.3122183"><ele>795.8333333333333</ele><time>2026-04-04T16:32:51.24Z</time></trkpt><trkpt lat="40.65443" lon="-3.3121433"><ele>795.6666666666666</ele><time>2026-04-04T16:32:52.24Z</time></trkpt><trkpt lat="40.65448" lon="-3.31207"><ele>795.5</ele><time>2026-04-04T16:32:53.24Z</time></trkpt><trkpt lat="40.6545283" lon="-3.3120133"><ele>795.3333333333333</ele><time>2026-04-04T16:32:54.24Z</time></trkpt><trkpt lat="40.654585" lon="-3.3119633"><ele>795.1666666666666</ele><time>2026-04-04T16:32:55.24Z</time></trkpt><trkpt lat="40.654695" lon="-3.311935"><ele>795.0</ele><time>2026-04-04T16:32:57.24Z</time></trkpt><trkpt lat="40.6548267" lon="-3.3120167"><ele>797.3333333333334</ele><time>2026-04-04T16:32:59.241Z</time></trkpt><trkpt lat="40.6549117" lon="-3.3120867"><ele>799.6666666666667</ele><time>2026-04-04T16:33:00.24Z</time></trkpt><trkpt lat="40.6549967" lon="-3.312135"><ele>802.0</ele><time>2026-04-04T16:33:01.24Z</time></trkpt><trkpt lat="40.6550783" lon="-3.3121667"><ele>804.3333333333334</ele><time>2026-04-04T16:33:02.24Z</time></trkpt><trkpt lat="40.6551533" lon="-3.3121883"><ele>806.6666666666667</ele><time>2026-04-04T16:33:03.24Z</time></trkpt><trkpt lat="40.655235" lon="-3.31221"><ele>809.0</ele><time>2026-04-04T16:33:04.24Z</time></trkpt><trkpt lat="40.655325" lon="-3.312235"><ele>809.8000000000001</ele><time>2026-04-04T16:33:05.24Z</time></trkpt><trkpt lat="40.6554017" lon="-3.3122583"><ele>810.6</ele><time>2026-04-04T16:33:06.24Z</time></trkpt><trkpt lat="40.6554783" lon="-3.3122783"><ele>811.4</ele><time>2026-04-04T16:33:07.24Z</time></trkpt><trkpt lat="40.6556117" lon="-3.3123167"><ele>812.2</ele><time>2026-04-04T16:33:09.24Z</time></trkpt><trkpt lat="40.65569" lon="-3.3123417"><ele>813.0</ele><time>2026-04-04T16:33:10.24Z</time></trkpt><trkpt lat="40.65578" lon="-3.3123717"><ele>813.0</ele><time>2026-04-04T16:33:11.24Z</time></trkpt><trkpt lat="40.6558833" lon="-3.3124017"><ele>813.0</ele><time>2026-04-04T16:33:12.24Z</time></trkpt><trkpt lat="40.6559833" lon="-3.3124267"><ele>813.0</ele><time>2026-04-04T16:33:13.24Z</time></trkpt><trkpt lat="40.6560667" lon="-3.31246"><ele>813.0</ele><time>2026-04-04T16:33:14.24Z</time></trkpt><trkpt lat="40.656125" lon="-3.3124933"><ele>813.0</ele><time>2026-04-04T16:33:15.24Z</time></trkpt><trkpt lat="40.6562917" lon="-3.3125517"><ele>813.8</ele><time>2026-04-04T16:34:00.24Z</time></trkpt><trkpt lat="40.6564033" lon="-3.3125083"><ele>814.5999999999999</ele><time>2026-04-04T16:34:02.24Z</time></trkpt><trkpt lat="40.6564867" lon="-3.3124583"><ele>815.4000000000001</ele><time>2026-04-04T16:34:03.24Z</time></trkpt><trkpt lat="40.656585" lon="-3.3123933"><ele>816.2</ele><time>2026-04-04T16:34:04.241Z</time></trkpt><trkpt lat="40.6566783" lon="-3.3123367"><ele>817.0</ele><time>2026-04-04T16:34:05.241Z</time></trkpt><trkpt lat="40.6567583" lon="-3.31229"><ele>816.9999999999999</ele><time>2026-04-04T16:34:06.24Z</time></trkpt><trkpt lat="40.6568267" lon="-3.312255"><ele>817.0</ele><time>2026-04-04T16:34:07.24Z</time></trkpt><trkpt lat="40.6568883" lon="-3.312225"><ele>817.0</ele><time>2026-04-04T16:34:08.24Z</time></trkpt><trkpt lat="40.6570067" lon="-3.312205"><ele>817.0</ele><time>2026-04-04T16:34:10.241Z</time></trkpt><trkpt lat="40.6570783" lon="-3.312185"><ele>816.9999999999999</ele><time>2026-04-04T16:34:11.24Z</time></trkpt><trkpt lat="40.6571667" lon="-3.31214"><ele>817.0</ele><time>2026-04-04T16:34:12.24Z</time></trkpt><trkpt lat="40.6572467" lon="-3.3120867"><ele>817.4999999999999</ele><time>2026-04-04T16:34:13.24Z</time></trkpt><trkpt lat="40.65732" lon="-3.3120333"><ele>818.0</ele><time>2026-04-04T16:34:14.24Z</time></trkpt><trkpt lat="40.657405" lon="-3.3119883"><ele>818.5</ele><time>2026-04-04T16:34:15.24Z</time></trkpt><trkpt lat="40.6574917" lon="-3.31195"><ele>819.0</ele><time>2026-04-04T16:34:16.24Z</time></trkpt><trkpt lat="40.6575767" lon="-3.3119217"><ele>819.4999999999999</ele><time>2026-04-04T16:34:17.24Z</time></trkpt><trkpt lat="40.6576533" lon="-3.3119033"><ele>820.0</ele><time>2026-04-04T16:34:18.24Z</time></trkpt><trkpt lat="40.65773" lon="-3.31188"><ele>819.9999999999999</ele><time>2026-04-04T16:34:19.24Z</time></trkpt><trkpt lat="40.65781" lon="-3.31185"><ele>820.0</ele><time>2026-04-04T16:34:20.24Z</time></trkpt><trkpt lat="40.6578833" lon="-3.3118183"><ele>820.0</ele><time>2026-04-04T16:34:21.24Z</time></trkpt><trkpt lat="40.657955" lon="-3.3117883"><ele>820.0</ele><time>2026-04-04T16:34:22.24Z</time></trkpt><trkpt lat="40.65803" lon="-3.3117567"><ele>819.9999999999999</ele><time>2026-04-04T16:34:23.24Z</time></trkpt><trkpt lat="40.6581017" lon="-3.3117233"><ele>820.0</ele><time>2026-04-04T16:34:24.24Z</time></trkpt><trkpt lat="40.658175" lon="-3.3117"><ele>819.9999999999999</ele><time>2026-04-04T16:34:25.24Z</time></trkpt><trkpt lat="40.658255" lon="-3.31168"><ele>820.0</ele><time>2026-04-04T16:34:26.24Z</time></trkpt><trkpt lat="40.658335" lon="-3.311655"><ele>820.0</ele><time>2026-04-04T16:34:27.24Z</time></trkpt><trkpt lat="40.6584083" lon="-3.31163"><ele>820.0</ele><time>2026-04-04T16:34:28.24Z</time></trkpt><trkpt lat="40.6584717" lon="-3.3116033"><ele>819.9999999999999</ele><time>2026-04-04T16:34:29.24Z</time></trkpt><trkpt lat="40.6585333" lon="-3.311585"><ele>820.0</ele><time>2026-04-04T16:34:30.24Z</time></trkpt><trkpt lat="40.6586217" lon="-3.3115567"><ele>820.3333333333333</ele><time>2026-04-04T16:34:32.24Z</time></trkpt><trkpt lat="40.6586967" lon="-3.3115283"><ele>820.6666666666666</ele><time>2026-04-04T16:35:23.24Z</time></trkpt><trkpt lat="40.658775" lon="-3.3115117"><ele>821.0</ele><time>2026-04-04T16:35:24.24Z</time></trkpt><trkpt lat="40.6588533" lon="-3.31149"><ele>821.3333333333333</ele><time>2026-04-04T16:35:25.24Z</time></trkpt><trkpt lat="40.6589333" lon="-3.3114683"><ele>821.6666666666666</ele><time>2026-04-04T16:35:26.24Z</time></trkpt><trkpt lat="40.6590133" lon="-3.31146"><ele>822.0</ele><time>2026-04-04T16:35:27.24Z</time></trkpt><trkpt lat="40.6590933" lon="-3.3114583"><ele>822.0</ele><time>2026-04-04T16:35:28.24Z</time></trkpt><trkpt lat="40.659175" lon="-3.311455"><ele>822.0</ele><time>2026-04-04T16:35:29.241Z</time></trkpt><trkpt lat="40.6592483" lon="-3.311455"><ele>822.0</ele><time>2026-04-04T16:35:30.24Z</time></trkpt><trkpt lat="40.6593167" lon="-3.3114767"><ele>822.0</ele><time>2026-04-04T16:35:31.24Z</time></trkpt><trkpt lat="40.6593883" lon="-3.311495"><ele>822.0</ele><time>2026-04-04T16:35:32.24Z</time></trkpt><trkpt lat="40.65946" lon="-3.3115233"><ele>822.0</ele><time>2026-04-04T16:35:33.24Z</time></trkpt><trkpt lat="40.6595333" lon="-3.3115583"><ele>821.8333333333334</ele><time>2026-04-04T16:35:34.24Z</time></trkpt><trkpt lat="40.6596117" lon="-3.31159"><ele>821.6666666666667</ele><time>2026-04-04T16:35:35.24Z</time></trkpt><trkpt lat="40.659675" lon="-3.3116183"><ele>821.5</ele><time>2026-04-04T16:35:36.24Z</time></trkpt><trkpt lat="40.6597917" lon="-3.3117"><ele>821.3333333333334</ele><time>2026-04-04T16:35:38.24Z</time></trkpt><trkpt lat="40.6598567" lon="-3.311745"><ele>821.1666666666667</ele><time>2026-04-04T16:35:39.24Z</time></trkpt><trkpt lat="40.65991" lon="-3.3117917"><ele>821.0</ele><time>2026-04-04T16:35:40.239Z</time></trkpt><trkpt lat="40.6599983" lon="-3.3118833"><ele>821.0000000000001</ele><time>2026-04-04T16:35:42.239Z</time></trkpt><trkpt lat="40.6600483" lon="-3.3119367"><ele>821.0</ele><time>2026-04-04T16:35:43.239Z</time></trkpt><trkpt lat="40.6601033" lon="-3.3119917"><ele>821.0</ele><time>2026-04-04T16:35:44.239Z</time></trkpt><trkpt lat="40.6601883" lon="-3.3121067"><ele>821.0</ele><time>2026-04-04T16:35:46.239Z</time></trkpt><trkpt lat="40.6602367" lon="-3.3121667"><ele>821.0000000000001</ele><time>2026-04-04T16:35:47.239Z</time></trkpt><trkpt lat="40.6602817" lon="-3.3122267"><ele>821.0</ele><time>2026-04-04T16:35:48.239Z</time></trkpt><trkpt lat="40.6603283" lon="-3.3122867"><ele>821.0</ele><time>2026-04-04T16:35:49.239Z</time></trkpt><trkpt lat="40.6604033" lon="-3.3123933"><ele>821.0</ele><time>2026-04-04T16:35:51.239Z</time></trkpt><trkpt lat="40.6604933" lon="-3.312495"><ele>821.0</ele><time>2026-04-04T16:35:53.239Z</time></trkpt><trkpt lat="40.6605517" lon="-3.3125533"><ele>821.0</ele><time>2026-04-04T16:35:54.239Z</time></trkpt><trkpt lat="40.6606283" lon="-3.3126133"><ele>821.0</ele><time>2026-04-04T16:35:55.239Z</time></trkpt><trkpt lat="40.6607117" lon="-3.312655"><ele>821.0</ele><time>2026-04-04T16:35:56.239Z</time></trkpt><trkpt lat="40.6608" lon="-3.312685"><ele>821.0</ele><time>2026-04-04T16:35:57.239Z</time></trkpt><trkpt lat="40.66089" lon="-3.3127117"><ele>821.0</ele><time>2026-04-04T16:35:58.239Z</time></trkpt><trkpt lat="40.66099" lon="-3.3127367"><ele>821.0</ele><time>2026-04-04T16:35:59.239Z</time></trkpt><trkpt lat="40.6610983" lon="-3.3127533"><ele>821.0</ele><time>2026-04-04T16:36:00.239Z</time></trkpt><trkpt lat="40.6612033" lon="-3.3127783"><ele>820.5000000000001</ele><time>2026-04-04T16:36:01.239Z</time></trkpt><trkpt lat="40.6613" lon="-3.3128033"><ele>820.0</ele><time>2026-04-04T16:36:02.24Z</time></trkpt><trkpt lat="40.66138" lon="-3.312825"><ele>819.5</ele><time>2026-04-04T16:36:03.239Z</time></trkpt><trkpt lat="40.6614517" lon="-3.312845"><ele>819.0</ele><time>2026-04-04T16:36:04.239Z</time></trkpt><trkpt lat="40.6615217" lon="-3.312865"><ele>818.5000000000001</ele><time>2026-04-04T16:36:05.239Z</time></trkpt><trkpt lat="40.6615933" lon="-3.3128983"><ele>818.0</ele><time>2026-04-04T16:36:06.239Z</time></trkpt><trkpt lat="40.6616617" lon="-3.3129383"><ele>818.0000000000001</ele><time>2026-04-04T16:36:07.239Z</time></trkpt><trkpt lat="40.6617217" lon="-3.3129783"><ele>818.0</ele><time>2026-04-04T16:36:08.239Z</time></trkpt><trkpt lat="40.661815" lon="-3.3130333"><ele>818.0</ele><time>2026-04-04T16:36:10.24Z</time></trkpt><trkpt lat="40.6619067" lon="-3.3130833"><ele>818.0</ele><time>2026-04-04T16:36:12.24Z</time></trkpt><trkpt lat="40.661985" lon="-3.3131267"><ele>818.0000000000001</ele><time>2026-04-04T16:36:14.239Z</time></trkpt><trkpt lat="40.662045" lon="-3.3131533"><ele>818.0</ele><time>2026-04-04T16:36:15.239Z</time></trkpt><trkpt lat="40.662125" lon="-3.31318"><ele>818.1666666666667</ele><time>2026-04-04T16:36:16.24Z</time></trkpt><trkpt lat="40.6622117" lon="-3.3132017"><ele>818.3333333333334</ele><time>2026-04-04T16:36:17.239Z</time></trkpt><trkpt lat="40.662295" lon="-3.31321"><ele>818.5</ele><time>2026-04-04T16:36:18.239Z</time></trkpt><trkpt lat="40.6623917" lon="-3.3132117"><ele>818.6666666666667</ele><time>2026-04-04T16:36:19.239Z</time></trkpt><trkpt lat="40.6624783" lon="-3.31322"><ele>818.8333333333334</ele><time>2026-04-04T16:36:20.239Z</time></trkpt><trkpt lat="40.6625567" lon="-3.3132267"><ele>819.0</ele><time>2026-04-04T16:36:21.239Z</time></trkpt><trkpt lat="40.6626217" lon="-3.31323"><ele>819.0</ele><time>2026-04-04T16:36:22.239Z</time></trkpt><trkpt lat="40.6626933" lon="-3.3132467"><ele>819.0</ele><time>2026-04-04T16:36:24.239Z</time></trkpt><trkpt lat="40.6627617" lon="-3.3132633"><ele>819.0</ele><time>2026-04-04T16:36:27.239Z</time></trkpt><trkpt lat="40.6628433" lon="-3.3132733"><ele>819.0</ele><time>2026-04-04T16:36:30.239Z</time></trkpt><trkpt lat="40.6628833" lon="-3.313355"><ele>819.0</ele><time>2026-04-04T16:36:33.239Z</time></trkpt><trkpt lat="40.6627967" lon="-3.3134083"><ele>819.0</ele><time>2026-04-04T16:36:57.239Z</time></trkpt><trkpt lat="40.6626817" lon="-3.3134217"><ele>819.0</ele><time>2026-04-04T16:36:59.239Z</time></trkpt><trkpt lat="40.66257" lon="-3.3134367"><ele>819.0</ele><time>2026-04-04T16:37:01.239Z</time></trkpt><trkpt lat="40.6624467" lon="-3.313485"><ele>819.0</ele><time>2026-04-04T16:37:03.239Z</time></trkpt><trkpt lat="40.6623767" lon="-3.3135117"><ele>819.0</ele><time>2026-04-04T16:37:04.239Z</time></trkpt><trkpt lat="40.6623" lon="-3.3135433"><ele>819.0</ele><time>2026-04-04T16:37:05.239Z</time></trkpt><trkpt lat="40.6622167" lon="-3.3135783"><ele>819.0</ele><time>2026-04-04T16:37:06.239Z</time></trkpt><trkpt lat="40.6621317" lon="-3.3136233"><ele>819.0</ele><time>2026-04-04T16:37:07.239Z</time></trkpt><trkpt lat="40.66203" lon="-3.3136767"><ele>819.0</ele><time>2026-04-04T16:37:08.239Z</time></trkpt><trkpt lat="40.661925" lon="-3.3137267"><ele>819.0</ele><time>2026-04-04T16:37:09.239Z</time></trkpt><trkpt lat="40.66183" lon="-3.3137717"><ele>819.0</ele><time>2026-04-04T16:37:10.239Z</time></trkpt><trkpt lat="40.6617367" lon="-3.3138183"><ele>819.5</ele><time>2026-04-04T16:37:11.239Z</time></trkpt><trkpt lat="40.6616433" lon="-3.3138567"><ele>820.0</ele><time>2026-04-04T16:37:12.239Z</time></trkpt><trkpt lat="40.6615567" lon="-3.31389"><ele>820.5</ele><time>2026-04-04T16:37:13.239Z</time></trkpt><trkpt lat="40.6614767" lon="-3.3139333"><ele>821.0</ele><time>2026-04-04T16:37:14.239Z</time></trkpt><trkpt lat="40.6614067" lon="-3.3139733"><ele>821.5</ele><time>2026-04-04T16:37:15.239Z</time></trkpt><trkpt lat="40.6613483" lon="-3.31402"><ele>822.0</ele><time>2026-04-04T16:37:16.239Z</time></trkpt><trkpt lat="40.6612717" lon="-3.3140667"><ele>822.1666666666666</ele><time>2026-04-04T16:37:18.24Z</time></trkpt><trkpt lat="40.661185" lon="-3.3141267"><ele>822.3333333333333</ele><time>2026-04-04T16:37:21.239Z</time></trkpt><trkpt lat="40.6611317" lon="-3.3141783"><ele>822.5</ele><time>2026-04-04T16:37:23.239Z</time></trkpt><trkpt lat="40.6610433" lon="-3.314225"><ele>822.6666666666666</ele><time>2026-04-04T16:37:26.239Z</time></trkpt><trkpt lat="40.6609733" lon="-3.3142533"><ele>822.8333333333333</ele><time>2026-04-04T16:37:28.239Z</time></trkpt><trkpt lat="40.660905" lon="-3.314265"><ele>823.0</ele><time>2026-04-04T16:37:30.239Z</time></trkpt><trkpt lat="40.660825" lon="-3.31425"><ele>822.2</ele><time>2026-04-04T16:37:32.24Z</time></trkpt><trkpt lat="40.660745" lon="-3.3142483"><ele>821.4</ele><time>2026-04-04T16:37:34.239Z</time></trkpt><trkpt lat="40.660655" lon="-3.3142567"><ele>820.6</ele><time>2026-04-04T16:37:36.239Z</time></trkpt><trkpt lat="40.6605533" lon="-3.3142417"><ele>819.8000000000001</ele><time>2026-04-04T16:37:38.24Z</time></trkpt><trkpt lat="40.6604517" lon="-3.3142133"><ele>819.0</ele><time>2026-04-04T16:37:40.24Z</time></trkpt><trkpt lat="40.6603633" lon="-3.3141967"><ele>819.0</ele><time>2026-04-04T16:37:42.239Z</time></trkpt><trkpt lat="40.660285" lon="-3.3142"><ele>819.0</ele><time>2026-04-04T16:37:44.239Z</time></trkpt><trkpt lat="40.6601933" lon="-3.314215"><ele>819.0</ele><time>2026-04-04T16:37:46.239Z</time></trkpt><trkpt lat="40.66005" lon="-3.3142217"><ele>819.0</ele><time>2026-04-04T16:37:48.239Z</time></trkpt><trkpt lat="40.6599667" lon="-3.3142317"><ele>819.0</ele><time>2026-04-04T16:37:49.24Z</time></trkpt><trkpt lat="40.6598967" lon="-3.3142417"><ele>817.4000000000001</ele><time>2026-04-04T16:37:50.239Z</time></trkpt><trkpt lat="40.6598283" lon="-3.314255"><ele>815.8</ele><time>2026-04-04T16:37:51.239Z</time></trkpt><trkpt lat="40.6597133" lon="-3.314285"><ele>814.2</ele><time>2026-04-04T16:37:53.239Z</time></trkpt><trkpt lat="40.6596017" lon="-3.3143017"><ele>812.5999999999999</ele><time>2026-04-04T16:37:55.239Z</time></trkpt><trkpt lat="40.6594983" lon="-3.3143167"><ele>811.0</ele><time>2026-04-04T16:37:57.239Z</time></trkpt><trkpt lat="40.6594033" lon="-3.3143367"><ele>810.3333333333333</ele><time>2026-04-04T16:37:59.239Z</time></trkpt><trkpt lat="40.6593383" lon="-3.3143517"><ele>809.6666666666666</ele><time>2026-04-04T16:38:01.239Z</time></trkpt><trkpt lat="40.6592483" lon="-3.3143517"><ele>809.0</ele><time>2026-04-04T16:38:04.239Z</time></trkpt><trkpt lat="40.6591433" lon="-3.3143317"><ele>808.3333333333333</ele><time>2026-04-04T16:38:26.239Z</time></trkpt><trkpt lat="40.6590717" lon="-3.3143017"><ele>807.6666666666666</ele><time>2026-04-04T16:38:27.239Z</time></trkpt><trkpt lat="40.6590067" lon="-3.3142717"><ele>807.0</ele><time>2026-04-04T16:38:28.239Z</time></trkpt><trkpt lat="40.6589433" lon="-3.3142467"><ele>807.0</ele><time>2026-04-04T16:38:29.239Z</time></trkpt><trkpt lat="40.6588333" lon="-3.3142083"><ele>807.0</ele><time>2026-04-04T16:38:31.239Z</time></trkpt><trkpt lat="40.6587433" lon="-3.31423"><ele>807.0</ele><time>2026-04-04T16:38:33.239Z</time></trkpt><trkpt lat="40.6586433" lon="-3.31427"><ele>807.0</ele><time>2026-04-04T16:38:35.239Z</time></trkpt><trkpt lat="40.6585767" lon="-3.3143033"><ele>807.0</ele><time>2026-04-04T16:38:36.239Z</time></trkpt><trkpt lat="40.658505" lon="-3.314345"><ele>805.25</ele><time>2026-04-04T16:38:37.239Z</time></trkpt><trkpt lat="40.65839" lon="-3.31442"><ele>803.5</ele><time>2026-04-04T16:38:39.239Z</time></trkpt><trkpt lat="40.6582833" lon="-3.3144867"><ele>801.75</ele><time>2026-04-04T16:38:41.24Z</time></trkpt><trkpt lat="40.6581917" lon="-3.3145567"><ele>800.0</ele><time>2026-04-04T16:38:43.239Z</time></trkpt><trkpt lat="40.6580917" lon="-3.3146217"><ele>800.0</ele><time>2026-04-04T16:38:45.239Z</time></trkpt><trkpt lat="40.657985" lon="-3.3146633"><ele>800.0</ele><time>2026-04-04T16:38:47.239Z</time></trkpt><trkpt lat="40.657885" lon="-3.3147283"><ele>800.0</ele><time>2026-04-04T16:38:49.239Z</time></trkpt><trkpt lat="40.6577833" lon="-3.3147983"><ele>800.0</ele><time>2026-04-04T16:38:51.239Z</time></trkpt><trkpt lat="40.6576867" lon="-3.3148667"><ele>800.0</ele><time>2026-04-04T16:38:53.239Z</time></trkpt><trkpt lat="40.6575717" lon="-3.3149333"><ele>799.1666666666667</ele><time>2026-04-04T16:38:55.239Z</time></trkpt><trkpt lat="40.657505" lon="-3.3149667"><ele>798.3333333333334</ele><time>2026-04-04T16:38:56.24Z</time></trkpt><trkpt lat="40.6574383" lon="-3.315"><ele>797.5</ele><time>2026-04-04T16:38:57.24Z</time></trkpt><trkpt lat="40.6573783" lon="-3.3150333"><ele>796.6666666666667</ele><time>2026-04-04T16:38:58.239Z</time></trkpt><trkpt lat="40.6572717" lon="-3.3151167"><ele>795.8333333333334</ele><time>2026-04-04T16:39:00.239Z</time></trkpt><trkpt lat="40.6572133" lon="-3.3151617"><ele>795.0</ele><time>2026-04-04T16:39:01.239Z</time></trkpt><trkpt lat="40.65716" lon="-3.3152067"><ele>795.0</ele><time>2026-04-04T16:39:02.239Z</time></trkpt><trkpt lat="40.65708" lon="-3.3153"><ele>795.0</ele><time>2026-04-04T16:39:04.24Z</time></trkpt><trkpt lat="40.6569933" lon="-3.315415"><ele>795.0</ele><time>2026-04-04T16:39:06.239Z</time></trkpt><trkpt lat="40.656945" lon="-3.3154883"><ele>795.0</ele><time>2026-04-04T16:39:07.239Z</time></trkpt><trkpt lat="40.6568917" lon="-3.31555"><ele>795.0</ele><time>2026-04-04T16:39:08.239Z</time></trkpt><trkpt lat="40.656815" lon="-3.3156167"><ele>794.0</ele><time>2026-04-04T16:39:09.239Z</time></trkpt><trkpt lat="40.6567333" lon="-3.3156933"><ele>793.0</ele><time>2026-04-04T16:39:10.239Z</time></trkpt><trkpt lat="40.6566583" lon="-3.3157583"><ele>792.0</ele><time>2026-04-04T16:39:11.24Z</time></trkpt><trkpt lat="40.6566017" lon="-3.315825"><ele>791.0</ele><time>2026-04-04T16:39:12.239Z</time></trkpt><trkpt lat="40.6565433" lon="-3.3158717"><ele>790.0</ele><time>2026-04-04T16:39:13.239Z</time></trkpt><trkpt lat="40.6564567" lon="-3.3159517"><ele>789.0</ele><time>2026-04-04T16:39:15.24Z</time></trkpt><trkpt lat="40.6563833" lon="-3.3160217"><ele>789.0</ele><time>2026-04-04T16:39:17.239Z</time></trkpt><trkpt lat="40.656275" lon="-3.3161117"><ele>789.0</ele><time>2026-04-04T16:39:19.239Z</time></trkpt><trkpt lat="40.656215" lon="-3.3161517"><ele>789.0</ele><time>2026-04-04T16:39:20.239Z</time></trkpt><trkpt lat="40.656155" lon="-3.3161833"><ele>789.0</ele><time>2026-04-04T16:39:21.239Z</time></trkpt><trkpt lat="40.656095" lon="-3.31622"><ele>789.0</ele><time>2026-04-04T16:39:22.24Z</time></trkpt><trkpt lat="40.6560283" lon="-3.3162617"><ele>789.0</ele><time>2026-04-04T16:39:23.239Z</time></trkpt><trkpt lat="40.6559517" lon="-3.3163133"><ele>788.6666666666666</ele><time>2026-04-04T16:39:24.239Z</time></trkpt><trkpt lat="40.6558767" lon="-3.3163583"><ele>788.3333333333333</ele><time>2026-04-04T16:39:25.239Z</time></trkpt><trkpt lat="40.6557967" lon="-3.3163967"><ele>788.0</ele><time>2026-04-04T16:39:26.239Z</time></trkpt><trkpt lat="40.6557167" lon="-3.3164367"><ele>787.6666666666666</ele><time>2026-04-04T16:39:27.24Z</time></trkpt><trkpt lat="40.6556367" lon="-3.31648"><ele>787.3333333333333</ele><time>2026-04-04T16:39:28.239Z</time></trkpt><trkpt lat="40.655565" lon="-3.31651"><ele>787.0</ele><time>2026-04-04T16:39:29.239Z</time></trkpt><trkpt lat="40.6554967" lon="-3.316535"><ele>786.4999999999999</ele><time>2026-04-04T16:39:30.238Z</time></trkpt><trkpt lat="40.6554217" lon="-3.3165617"><ele>786.0</ele><time>2026-04-04T16:39:31.238Z</time></trkpt><trkpt lat="40.6553367" lon="-3.3165717"><ele>785.5</ele><time>2026-04-04T16:39:32.238Z</time></trkpt><trkpt lat="40.6552567" lon="-3.3165683"><ele>785.0</ele><time>2026-04-04T16:39:33.238Z</time></trkpt><trkpt lat="40.6551817" lon="-3.316555"><ele>784.4999999999999</ele><time>2026-04-04T16:39:34.238Z</time></trkpt><trkpt lat="40.6551083" lon="-3.3165417"><ele>784.0</ele><time>2026-04-04T16:39:35.238Z</time></trkpt><trkpt lat="40.6550283" lon="-3.31654"><ele>783.9999999999999</ele><time>2026-04-04T16:39:36.238Z</time></trkpt><trkpt lat="40.654945" lon="-3.3165367"><ele>784.0</ele><time>2026-04-04T16:39:37.238Z</time></trkpt><trkpt lat="40.6548567" lon="-3.316535"><ele>784.0</ele><time>2026-04-04T16:39:38.238Z</time></trkpt><trkpt lat="40.6547767" lon="-3.3165467"><ele>784.0</ele><time>2026-04-04T16:39:39.238Z</time></trkpt><trkpt lat="40.65469" lon="-3.3165633"><ele>783.9999999999999</ele><time>2026-04-04T16:39:40.238Z</time></trkpt><trkpt lat="40.6546033" lon="-3.316595"><ele>784.0</ele><time>2026-04-04T16:39:41.238Z</time></trkpt><trkpt lat="40.6545133" lon="-3.3166283"><ele>783.3333333333333</ele><time>2026-04-04T16:39:42.238Z</time></trkpt><trkpt lat="40.6544233" lon="-3.3166683"><ele>782.6666666666666</ele><time>2026-04-04T16:39:43.238Z</time></trkpt><trkpt lat="40.654345" lon="-3.316705"><ele>782.0</ele><time>2026-04-04T16:39:44.238Z</time></trkpt><trkpt lat="40.6542783" lon="-3.3167383"><ele>781.3333333333333</ele><time>2026-04-04T16:39:45.238Z</time></trkpt><trkpt lat="40.6542217" lon="-3.3167783"><ele>780.6666666666666</ele><time>2026-04-04T16:39:46.238Z</time></trkpt><trkpt lat="40.65416" lon="-3.3168167"><ele>780.0</ele><time>2026-04-04T16:39:47.238Z</time></trkpt><trkpt lat="40.654065" lon="-3.3168883"><ele>780.0</ele><time>2026-04-04T16:39:49.238Z</time></trkpt><trkpt lat="40.6540117" lon="-3.3169667"><ele>780.0</ele><time>2026-04-04T16:39:51.238Z</time></trkpt><trkpt lat="40.65398" lon="-3.31705"><ele>780.0</ele><time>2026-04-04T16:39:53.239Z</time></trkpt><trkpt lat="40.6539083" lon="-3.3171567"><ele>780.0</ele><time>2026-04-04T16:40:03.239Z</time></trkpt><trkpt lat="40.6538617" lon="-3.3172217"><ele>780.0</ele><time>2026-04-04T16:40:04.238Z</time></trkpt><trkpt lat="40.6538" lon="-3.3172983"><ele>780.0</ele><time>2026-04-04T16:40:05.238Z</time></trkpt><trkpt lat="40.6537183" lon="-3.3173867"><ele>781.2</ele><time>2026-04-04T16:40:06.238Z</time></trkpt><trkpt lat="40.653625" lon="-3.317485"><ele>782.4</ele><time>2026-04-04T16:40:07.238Z</time></trkpt><trkpt lat="40.6535267" lon="-3.3175867"><ele>783.5999999999999</ele><time>2026-04-04T16:40:08.238Z</time></trkpt><trkpt lat="40.6534567" lon="-3.317665"><ele>784.8</ele><time>2026-04-04T16:40:09.238Z</time></trkpt><trkpt lat="40.6533933" lon="-3.3177333"><ele>786.0</ele><time>2026-04-04T16:40:10.238Z</time></trkpt><trkpt lat="40.6533317" lon="-3.3178367"><ele>786.0</ele><time>2026-04-04T16:40:12.238Z</time></trkpt><trkpt lat="40.6532817" lon="-3.317965"><ele>786.0</ele><time>2026-04-04T16:40:14.238Z</time></trkpt><trkpt lat="40.6532383" lon="-3.3180767"><ele>786.0</ele><time>2026-04-04T16:40:15.238Z</time></trkpt><trkpt lat="40.653185" lon="-3.3182017"><ele>786.0</ele><time>2026-04-04T16:40:16.238Z</time></trkpt><trkpt lat="40.65314" lon="-3.3183133"><ele>786.0</ele><time>2026-04-04T16:40:17.238Z</time></trkpt><trkpt lat="40.6530983" lon="-3.3184217"><ele>787.5</ele><time>2026-04-04T16:40:18.239Z</time></trkpt><trkpt lat="40.65305" lon="-3.31853"><ele>789.0</ele><time>2026-04-04T16:40:19.238Z</time></trkpt><trkpt lat="40.652985" lon="-3.318655"><ele>790.5</ele><time>2026-04-04T16:40:20.238Z</time></trkpt><trkpt lat="40.652915" lon="-3.3187917"><ele>792.0</ele><time>2026-04-04T16:40:21.238Z</time></trkpt><trkpt lat="40.652845" lon="-3.3189317"><ele>790.0</ele><time>2026-04-04T16:40:22.238Z</time></trkpt><trkpt lat="40.652775" lon="-3.3190733"><ele>788.0</ele><time>2026-04-04T16:40:23.238Z</time></trkpt><trkpt lat="40.6526983" lon="-3.3192183"><ele>786.0</ele><time>2026-04-04T16:40:24.238Z</time></trkpt><trkpt lat="40.65262" lon="-3.3193567"><ele>784.0</ele><time>2026-04-04T16:40:25.238Z</time></trkpt><trkpt lat="40.6525483" lon="-3.3194883"><ele>784.0</ele><time>2026-04-04T16:40:26.238Z</time></trkpt><trkpt lat="40.6524833" lon="-3.3196017"><ele>784.0</ele><time>2026-04-04T16:40:27.239Z</time></trkpt><trkpt lat="40.65242" lon="-3.31972"><ele>784.0</ele><time>2026-04-04T16:40:28.239Z</time></trkpt><trkpt lat="40.6523517" lon="-3.3198433"><ele>784.0</ele><time>2026-04-04T16:40:29.238Z</time></trkpt><trkpt lat="40.6522683" lon="-3.3199767"><ele>784.0</ele><time>2026-04-04T16:40:30.238Z</time></trkpt><trkpt lat="40.65219" lon="-3.3201067"><ele>784.0</ele><time>2026-04-04T16:40:31.238Z</time></trkpt><trkpt lat="40.65211" lon="-3.3202317"><ele>784.0</ele><time>2026-04-04T16:40:32.238Z</time></trkpt><trkpt lat="40.652025" lon="-3.3203417"><ele>784.0</ele><time>2026-04-04T16:40:33.238Z</time></trkpt><trkpt lat="40.65194" lon="-3.3204317"><ele>783.6666666666666</ele><time>2026-04-04T16:40:34.238Z</time></trkpt><trkpt lat="40.6518533" lon="-3.3205083"><ele>783.3333333333333</ele><time>2026-04-04T16:40:35.238Z</time></trkpt><trkpt lat="40.6517817" lon="-3.3205583"><ele>783.0</ele><time>2026-04-04T16:40:36.239Z</time></trkpt><trkpt lat="40.65172" lon="-3.3206117"><ele>782.6666666666667</ele><time>2026-04-04T16:40:37.238Z</time></trkpt><trkpt lat="40.65167" lon="-3.3206683"><ele>782.3333333333334</ele><time>2026-04-04T16:40:38.238Z</time></trkpt><trkpt lat="40.6516267" lon="-3.3207333"><ele>782.0</ele><time>2026-04-04T16:40:39.238Z</time></trkpt><trkpt lat="40.65157" lon="-3.3208233"><ele>782.0</ele><time>2026-04-04T16:40:40.238Z</time></trkpt><trkpt lat="40.6515033" lon="-3.3209283"><ele>782.0</ele><time>2026-04-04T16:40:41.238Z</time></trkpt><trkpt lat="40.65143" lon="-3.3210533"><ele>782.0</ele><time>2026-04-04T16:40:42.238Z</time></trkpt><trkpt lat="40.6513583" lon="-3.32119"><ele>782.0</ele><time>2026-04-04T16:40:43.238Z</time></trkpt><trkpt lat="40.651295" lon="-3.3213283"><ele>782.75</ele><time>2026-04-04T16:40:44.238Z</time></trkpt><trkpt lat="40.6512317" lon="-3.3214567"><ele>783.5</ele><time>2026-04-04T16:40:45.238Z</time></trkpt><trkpt lat="40.6511617" lon="-3.3215817"><ele>784.25</ele><time>2026-04-04T16:40:46.238Z</time></trkpt><trkpt lat="40.651065" lon="-3.3217117"><ele>785.0</ele><time>2026-04-04T16:40:47.238Z</time></trkpt><trkpt lat="40.6509383" lon="-3.32187"><ele>783.5</ele><time>2026-04-04T16:40:48.238Z</time></trkpt><trkpt lat="40.6508317" lon="-3.3220033"><ele>782.0</ele><time>2026-04-04T16:40:49.238Z</time></trkpt><trkpt lat="40.65072" lon="-3.322125"><ele>780.5</ele><time>2026-04-04T16:40:50.238Z</time></trkpt><trkpt lat="40.6506217" lon="-3.32224"><ele>779.0</ele><time>2026-04-04T16:40:51.238Z</time></trkpt><trkpt lat="40.6505367" lon="-3.3223467"><ele>779.0</ele><time>2026-04-04T16:40:52.238Z</time></trkpt><trkpt lat="40.6504667" lon="-3.3224333"><ele>779.0</ele><time>2026-04-04T16:40:53.238Z</time></trkpt><trkpt lat="40.65042" lon="-3.3225217"><ele>779.0</ele><time>2026-04-04T16:40:54.238Z</time></trkpt><trkpt lat="40.65038" lon="-3.3226467"><ele>779.0</ele><time>2026-04-04T16:40:55.238Z</time></trkpt><trkpt lat="40.6503417" lon="-3.3228067"><ele>779.0</ele><time>2026-04-04T16:40:56.239Z</time></trkpt><trkpt lat="40.650295" lon="-3.3229683"><ele>776.8000000000001</ele><time>2026-04-04T16:40:57.238Z</time></trkpt><trkpt lat="40.6502567" lon="-3.3231183"><ele>774.6</ele><time>2026-04-04T16:40:58.238Z</time></trkpt><trkpt lat="40.650225" lon="-3.323255"><ele>772.4</ele><time>2026-04-04T16:40:59.238Z</time></trkpt><trkpt lat="40.6502083" lon="-3.3233817"><ele>770.2</ele><time>2026-04-04T16:41:00.238Z</time></trkpt><trkpt lat="40.6501967" lon="-3.3235133"><ele>768.0</ele><time>2026-04-04T16:41:01.238Z</time></trkpt><trkpt lat="40.650175" lon="-3.3236417"><ele>768.0</ele><time>2026-04-04T16:41:02.238Z</time></trkpt><trkpt lat="40.65016" lon="-3.3237767"><ele>768.0</ele><time>2026-04-04T16:41:03.238Z</time></trkpt><trkpt lat="40.6501367" lon="-3.3239233"><ele>768.0</ele><time>2026-04-04T16:41:04.238Z</time></trkpt><trkpt lat="40.65012" lon="-3.3240867"><ele>768.0</ele><time>2026-04-04T16:41:05.238Z</time></trkpt><trkpt lat="40.6501083" lon="-3.3242517"><ele>767.25</ele><time>2026-04-04T16:41:06.238Z</time></trkpt><trkpt lat="40.6501" lon="-3.324405"><ele>766.5</ele><time>2026-04-04T16:41:07.238Z</time></trkpt><trkpt lat="40.650075" lon="-3.32457"><ele>765.75</ele><time>2026-04-04T16:41:08.238Z</time></trkpt><trkpt lat="40.6500367" lon="-3.3247567"><ele>765.0</ele><time>2026-04-04T16:41:09.238Z</time></trkpt><trkpt lat="40.649995" lon="-3.3249667"><ele>764.25</ele><time>2026-04-04T16:41:10.238Z</time></trkpt><trkpt lat="40.64996" lon="-3.3251667"><ele>763.5</ele><time>2026-04-04T16:41:11.238Z</time></trkpt><trkpt lat="40.6499217" lon="-3.325345"><ele>762.75</ele><time>2026-04-04T16:41:12.238Z</time></trkpt><trkpt lat="40.649885" lon="-3.3255183"><ele>762.0</ele><time>2026-04-04T16:41:13.238Z</time></trkpt><trkpt lat="40.649855" lon="-3.3256833"><ele>761.6</ele><time>2026-04-04T16:41:14.238Z</time></trkpt><trkpt lat="40.6498333" lon="-3.3258383"><ele>761.2</ele><time>2026-04-04T16:41:15.238Z</time></trkpt><trkpt lat="40.6498183" lon="-3.3259917"><ele>760.8</ele><time>2026-04-04T16:41:16.238Z</time></trkpt><trkpt lat="40.649805" lon="-3.3261317"><ele>760.4</ele><time>2026-04-04T16:41:17.238Z</time></trkpt><trkpt lat="40.6497833" lon="-3.3262633"><ele>760.0</ele><time>2026-04-04T16:41:18.238Z</time></trkpt><trkpt lat="40.6497567" lon="-3.326395"><ele>759.0</ele><time>2026-04-04T16:41:19.239Z</time></trkpt><trkpt lat="40.64972" lon="-3.326515"><ele>758.0</ele><time>2026-04-04T16:41:20.238Z</time></trkpt><trkpt lat="40.6496683" lon="-3.3266283"><ele>757.0</ele><time>2026-04-04T16:41:21.238Z</time></trkpt><trkpt lat="40.6496067" lon="-3.3267467"><ele>756.0</ele><time>2026-04-04T16:41:22.238Z</time></trkpt><trkpt lat="40.649535" lon="-3.3268683"><ele>755.0</ele><time>2026-04-04T16:41:23.238Z</time></trkpt><trkpt lat="40.649465" lon="-3.3269883"><ele>754.6</ele><time>2026-04-04T16:41:24.238Z</time></trkpt><trkpt lat="40.6493983" lon="-3.3271133"><ele>754.2</ele><time>2026-04-04T16:41:25.238Z</time></trkpt><trkpt lat="40.6493417" lon="-3.3272267"><ele>753.8</ele><time>2026-04-04T16:41:26.238Z</time></trkpt><trkpt lat="40.6492767" lon="-3.327345"><ele>753.4</ele><time>2026-04-04T16:41:27.238Z</time></trkpt><trkpt lat="40.64921" lon="-3.3274667"><ele>753.0</ele><time>2026-04-04T16:41:28.238Z</time></trkpt><trkpt lat="40.6491483" lon="-3.32759"><ele>752.4</ele><time>2026-04-04T16:41:29.238Z</time></trkpt><trkpt lat="40.6490883" lon="-3.3277117"><ele>751.8</ele><time>2026-04-04T16:41:30.238Z</time></trkpt><trkpt lat="40.649025" lon="-3.3278217"><ele>751.2</ele><time>2026-04-04T16:41:31.238Z</time></trkpt><trkpt lat="40.6489717" lon="-3.3279317"><ele>750.6</ele><time>2026-04-04T16:41:32.238Z</time></trkpt><trkpt lat="40.648915" lon="-3.3280417"><ele>750.0</ele><time>2026-04-04T16:41:33.238Z</time></trkpt><trkpt lat="40.6488633" lon="-3.328155"><ele>749.25</ele><time>2026-04-04T16:41:34.238Z</time></trkpt><trkpt lat="40.6488067" lon="-3.3282667"><ele>748.5</ele><time>2026-04-04T16:41:35.238Z</time></trkpt><trkpt lat="40.6487467" lon="-3.3283967"><ele>747.75</ele><time>2026-04-04T16:41:36.238Z</time></trkpt><trkpt lat="40.64868" lon="-3.3285483"><ele>747.0</ele><time>2026-04-04T16:41:37.238Z</time></trkpt><trkpt lat="40.64862" lon="-3.3286983"><ele>746.5</ele><time>2026-04-04T16:41:38.238Z</time></trkpt><trkpt lat="40.6485633" lon="-3.3288383"><ele>746.0</ele><time>2026-04-04T16:41:39.238Z</time></trkpt><trkpt lat="40.6485183" lon="-3.328975"><ele>745.5</ele><time>2026-04-04T16:41:40.238Z</time></trkpt><trkpt lat="40.6484883" lon="-3.32911"><ele>745.0</ele><time>2026-04-04T16:41:41.238Z</time></trkpt><trkpt lat="40.648455" lon="-3.3292533"><ele>744.6</ele><time>2026-04-04T16:41:42.238Z</time></trkpt><trkpt lat="40.6484217" lon="-3.3293867"><ele>744.2</ele><time>2026-04-04T16:41:43.238Z</time></trkpt><trkpt lat="40.6483917" lon="-3.32951"><ele>743.8</ele><time>2026-04-04T16:41:44.238Z</time></trkpt><trkpt lat="40.6483667" lon="-3.3296167"><ele>743.4</ele><time>2026-04-04T16:41:45.239Z</time></trkpt><trkpt lat="40.64834" lon="-3.3297"><ele>743.0</ele><time>2026-04-04T16:41:46.238Z</time></trkpt><trkpt lat="40.6482967" lon="-3.32982"><ele>742.6666666666666</ele><time>2026-04-04T16:41:48.238Z</time></trkpt><trkpt lat="40.6482483" lon="-3.3299467"><ele>742.3333333333333</ele><time>2026-04-04T16:41:50.238Z</time></trkpt><trkpt lat="40.6481933" lon="-3.3300983"><ele>742.0</ele><time>2026-04-04T16:41:52.238Z</time></trkpt><trkpt lat="40.6481533" lon="-3.3301767"><ele>741.6666666666666</ele><time>2026-04-04T16:41:53.238Z</time></trkpt><trkpt lat="40.64812" lon="-3.33026"><ele>741.3333333333334</ele><time>2026-04-04T16:41:54.238Z</time></trkpt><trkpt lat="40.6480917" lon="-3.330345"><ele>741.0</ele><time>2026-04-04T16:41:55.238Z</time></trkpt><trkpt lat="40.64806" lon="-3.3304283"><ele>741.0</ele><time>2026-04-04T16:41:56.238Z</time></trkpt><trkpt lat="40.6480317" lon="-3.3305167"><ele>741.0</ele><time>2026-04-04T16:41:57.239Z</time></trkpt><trkpt lat="40.6480033" lon="-3.3306167"><ele>741.0</ele><time>2026-04-04T16:41:58.238Z</time></trkpt><trkpt lat="40.6479583" lon="-3.3307217"><ele>741.0</ele><time>2026-04-04T16:41:59.238Z</time></trkpt><trkpt lat="40.6479083" lon="-3.3308283"><ele>741.0</ele><time>2026-04-04T16:42:00.238Z</time></trkpt><trkpt lat="40.6478583" lon="-3.3309317"><ele>741.0</ele><time>2026-04-04T16:42:01.238Z</time></trkpt><trkpt lat="40.6477983" lon="-3.3310467"><ele>740.6666666666666</ele><time>2026-04-04T16:42:02.238Z</time></trkpt><trkpt lat="40.647745" lon="-3.3311533"><ele>740.3333333333334</ele><time>2026-04-04T16:42:03.238Z</time></trkpt><trkpt lat="40.6477" lon="-3.3312467"><ele>740.0</ele><time>2026-04-04T16:42:04.238Z</time></trkpt><trkpt lat="40.6476517" lon="-3.331335"><ele>739.6666666666667</ele><time>2026-04-04T16:42:05.238Z</time></trkpt><trkpt lat="40.6476083" lon="-3.33142"><ele>739.3333333333334</ele><time>2026-04-04T16:42:06.238Z</time></trkpt><trkpt lat="40.6475683" lon="-3.331515"><ele>739.0</ele><time>2026-04-04T16:42:07.238Z</time></trkpt><trkpt lat="40.6475167" lon="-3.3316183"><ele>738.8333333333334</ele><time>2026-04-04T16:42:08.238Z</time></trkpt><trkpt lat="40.6474567" lon="-3.3317333"><ele>738.6666666666667</ele><time>2026-04-04T16:42:09.238Z</time></trkpt><trkpt lat="40.6474117" lon="-3.3318267"><ele>738.5</ele><time>2026-04-04T16:42:10.238Z</time></trkpt><trkpt lat="40.6473667" lon="-3.3319167"><ele>738.3333333333334</ele><time>2026-04-04T16:42:11.238Z</time></trkpt><trkpt lat="40.6473317" lon="-3.33199"><ele>738.1666666666666</ele><time>2026-04-04T16:42:12.238Z</time></trkpt><trkpt lat="40.6472967" lon="-3.33206"><ele>738.0</ele><time>2026-04-04T16:42:13.238Z</time></trkpt><trkpt lat="40.6472317" lon="-3.33219"><ele>737.8333333333334</ele><time>2026-04-04T16:42:15.239Z</time></trkpt><trkpt lat="40.6471967" lon="-3.3322633"><ele>737.6666666666666</ele><time>2026-04-04T16:42:16.238Z</time></trkpt><trkpt lat="40.6471683" lon="-3.3323533"><ele>737.5</ele><time>2026-04-04T16:42:17.238Z</time></trkpt><trkpt lat="40.6471283" lon="-3.33243"><ele>737.3333333333333</ele><time>2026-04-04T16:42:18.238Z</time></trkpt><trkpt lat="40.6470517" lon="-3.3325617"><ele>737.1666666666666</ele><time>2026-04-04T16:42:20.238Z</time></trkpt><trkpt lat="40.6469967" lon="-3.332665"><ele>737.0</ele><time>2026-04-04T16:42:22.238Z</time></trkpt><trkpt lat="40.646975" lon="-3.3327467"><ele>736.6666666666666</ele><time>2026-04-04T16:42:24.239Z</time></trkpt><trkpt lat="40.6469417" lon="-3.3328333"><ele>736.3333333333333</ele><time>2026-04-04T16:42:26.238Z</time></trkpt><trkpt lat="40.646895" lon="-3.3329517"><ele>736.0</ele><time>2026-04-04T16:42:28.238Z</time></trkpt><trkpt lat="40.6468567" lon="-3.3330467"><ele>735.6666666666666</ele><time>2026-04-04T16:42:29.238Z</time></trkpt><trkpt lat="40.6468133" lon="-3.3331517"><ele>735.3333333333334</ele><time>2026-04-04T16:42:30.238Z</time></trkpt><trkpt lat="40.6467683" lon="-3.3332483"><ele>735.0</ele><time>2026-04-04T16:42:31.238Z</time></trkpt><trkpt lat="40.6467333" lon="-3.3333333"><ele>734.4</ele><time>2026-04-04T16:42:32.238Z</time></trkpt><trkpt lat="40.6466983" lon="-3.33342"><ele>733.8</ele><time>2026-04-04T16:42:33.238Z</time></trkpt><trkpt lat="40.6466667" lon="-3.3335033"><ele>733.2</ele><time>2026-04-04T16:42:34.238Z</time></trkpt><trkpt lat="40.64663" lon="-3.3336167"><ele>732.6</ele><time>2026-04-04T16:42:35.238Z</time></trkpt><trkpt lat="40.6465767" lon="-3.3337517"><ele>732.0</ele><time>2026-04-04T16:42:36.238Z</time></trkpt><trkpt lat="40.64652" lon="-3.333875"><ele>731.6666666666666</ele><time>2026-04-04T16:42:37.238Z</time></trkpt><trkpt lat="40.64648" lon="-3.3339717"><ele>731.3333333333334</ele><time>2026-04-04T16:42:38.238Z</time></trkpt><trkpt lat="40.64643" lon="-3.334095"><ele>731.0</ele><time>2026-04-04T16:42:40.239Z</time></trkpt><trkpt lat="40.6464017" lon="-3.3341833"><ele>730.6666666666667</ele><time>2026-04-04T16:42:42.238Z</time></trkpt><trkpt lat="40.6464183" lon="-3.3342917"><ele>730.3333333333334</ele><time>2026-04-04T16:42:45.238Z</time></trkpt><trkpt lat="40.6464033" lon="-3.3344067"><ele>730.0</ele><time>2026-04-04T16:42:48.238Z</time></trkpt><trkpt lat="40.6463617" lon="-3.334515"><ele>730.0</ele><time>2026-04-04T16:42:50.238Z</time></trkpt><trkpt lat="40.64633" lon="-3.334595"><ele>730.0</ele><time>2026-04-04T16:42:51.238Z</time></trkpt><trkpt lat="40.6462967" lon="-3.3346767"><ele>730.0</ele><time>2026-04-04T16:42:52.239Z</time></trkpt><trkpt lat="40.6462717" lon="-3.334755"><ele>730.0</ele><time>2026-04-04T16:42:53.238Z</time></trkpt><trkpt lat="40.6462433" lon="-3.3348633"><ele>730.0</ele><time>2026-04-04T16:42:55.238Z</time></trkpt><trkpt lat="40.6462" lon="-3.33496"><ele>730.0</ele><time>2026-04-04T16:42:58.238Z</time></trkpt><trkpt lat="40.646215" lon="-3.3350767"><ele>729.5</ele><time>2026-04-04T16:43:00.238Z</time></trkpt><trkpt lat="40.6462317" lon="-3.3351733"><ele>729.0</ele><time>2026-04-04T16:43:01.238Z</time></trkpt><trkpt lat="40.64625" lon="-3.3352983"><ele>728.5</ele><time>2026-04-04T16:43:02.238Z</time></trkpt><trkpt lat="40.6462633" lon="-3.3354933"><ele>728.0</ele><time>2026-04-04T16:43:03.238Z</time></trkpt><trkpt lat="40.64628" lon="-3.3357083"><ele>727.5</ele><time>2026-04-04T16:43:04.238Z</time></trkpt><trkpt lat="40.646275" lon="-3.3359067"><ele>727.0</ele><time>2026-04-04T16:43:05.238Z</time></trkpt><trkpt lat="40.6462683" lon="-3.3360833"><ele>726.5</ele><time>2026-04-04T16:43:06.238Z</time></trkpt><trkpt lat="40.6462717" lon="-3.3362617"><ele>726.0</ele><time>2026-04-04T16:43:07.236Z</time></trkpt><trkpt lat="40.6462883" lon="-3.3364433"><ele>725.25</ele><time>2026-04-04T16:43:08.238Z</time></trkpt><trkpt lat="40.6463017" lon="-3.336635"><ele>724.5</ele><time>2026-04-04T16:43:09.238Z</time></trkpt><trkpt lat="40.6462967" lon="-3.336825"><ele>723.75</ele><time>2026-04-04T16:43:10.238Z</time></trkpt><trkpt lat="40.6463" lon="-3.337005"><ele>723.0</ele><time>2026-04-04T16:43:11.238Z</time></trkpt><trkpt lat="40.6463017" lon="-3.3371867"><ele>722.0</ele><time>2026-04-04T16:43:12.238Z</time></trkpt><trkpt lat="40.646315" lon="-3.33737"><ele>721.0</ele><time>2026-04-04T16:43:13.239Z</time></trkpt><trkpt lat="40.6463267" lon="-3.33753"><ele>720.0</ele><time>2026-04-04T16:43:14.238Z</time></trkpt><trkpt lat="40.6463367" lon="-3.337695"><ele>719.0</ele><time>2026-04-04T16:43:15.238Z</time></trkpt><trkpt lat="40.6463683" lon="-3.3378433"><ele>719.0</ele><time>2026-04-04T16:43:16.238Z</time></trkpt><trkpt lat="40.6464117" lon="-3.337985"><ele>719.0</ele><time>2026-04-04T16:43:17.238Z</time></trkpt><trkpt lat="40.64647" lon="-3.3381133"><ele>719.0</ele><time>2026-04-04T16:43:18.238Z</time></trkpt><trkpt lat="40.64654" lon="-3.33823"><ele>719.0</ele><time>2026-04-04T16:43:19.238Z</time></trkpt><trkpt lat="40.6466267" lon="-3.3382983"><ele>719.0</ele><time>2026-04-04T16:43:20.238Z</time></trkpt><trkpt lat="40.6467383" lon="-3.3383417"><ele>718.5</ele><time>2026-04-04T16:43:21.239Z</time></trkpt><trkpt lat="40.6468717" lon="-3.33836"><ele>718.0</ele><time>2026-04-04T16:43:22.238Z</time></trkpt><trkpt lat="40.64702" lon="-3.3383733"><ele>717.5</ele><time>2026-04-04T16:43:23.238Z</time></trkpt><trkpt lat="40.6471583" lon="-3.3383833"><ele>717.0</ele><time>2026-04-04T16:43:24.238Z</time></trkpt><trkpt lat="40.6472867" lon="-3.3383967"><ele>717.0</ele><time>2026-04-04T16:43:25.238Z</time></trkpt><trkpt lat="40.6474133" lon="-3.33841"><ele>717.0</ele><time>2026-04-04T16:43:26.238Z</time></trkpt><trkpt lat="40.6475267" lon="-3.3384233"><ele>717.0</ele><time>2026-04-04T16:43:27.238Z</time></trkpt><trkpt lat="40.6476317" lon="-3.33843"><ele>717.0</ele><time>2026-04-04T16:43:28.238Z</time></trkpt><trkpt lat="40.6477267" lon="-3.33844"><ele>717.0</ele><time>2026-04-04T16:43:29.238Z</time></trkpt><trkpt lat="40.6478317" lon="-3.33845"><ele>717.0</ele><time>2026-04-04T16:43:30.238Z</time></trkpt><trkpt lat="40.6479533" lon="-3.3384667"><ele>717.0</ele><time>2026-04-04T16:43:31.238Z</time></trkpt><trkpt lat="40.6480733" lon="-3.338475"><ele>717.0</ele><time>2026-04-04T16:43:32.237Z</time></trkpt><trkpt lat="40.64818" lon="-3.33848"><ele>717.0</ele><time>2026-04-04T16:43:33.237Z</time></trkpt><trkpt lat="40.6482683" lon="-3.3384833"><ele>717.0</ele><time>2026-04-04T16:43:34.237Z</time></trkpt><trkpt lat="40.64835" lon="-3.3384717"><ele>717.0</ele><time>2026-04-04T16:43:35.237Z</time></trkpt><trkpt lat="40.6484317" lon="-3.33844"><ele>717.0</ele><time>2026-04-04T16:43:36.237Z</time></trkpt><trkpt lat="40.648505" lon="-3.33838"><ele>717.0</ele><time>2026-04-04T16:43:37.237Z</time></trkpt><trkpt lat="40.6485833" lon="-3.3383383"><ele>717.0</ele><time>2026-04-04T16:43:38.237Z</time></trkpt><trkpt lat="40.64866" lon="-3.3383217"><ele>717.0</ele><time>2026-04-04T16:43:39.237Z</time></trkpt><trkpt lat="40.64873" lon="-3.3383367"><ele>717.0</ele><time>2026-04-04T16:43:40.237Z</time></trkpt><trkpt lat="40.64879" lon="-3.3383717"><ele>716.8571428571429</ele><time>2026-04-04T16:43:41.237Z</time></trkpt><trkpt lat="40.6488317" lon="-3.3384483"><ele>716.7142857142857</ele><time>2026-04-04T16:43:42.237Z</time></trkpt><trkpt lat="40.6488517" lon="-3.3385383"><ele>716.5714285714287</ele><time>2026-04-04T16:43:43.238Z</time></trkpt><trkpt lat="40.6488467" lon="-3.338645"><ele>716.4285714285714</ele><time>2026-04-04T16:43:44.237Z</time></trkpt><trkpt lat="40.6488183" lon="-3.3387433"><ele>716.2857142857143</ele><time>2026-04-04T16:43:45.237Z</time></trkpt><trkpt lat="40.6487733" lon="-3.338815"><ele>716.1428571428572</ele><time>2026-04-04T16:43:46.237Z</time></trkpt><trkpt lat="40.6487183" lon="-3.3388667"><ele>716.0</ele><time>2026-04-04T16:43:47.237Z</time></trkpt><trkpt lat="40.6486367" lon="-3.338975"><ele>715.8</ele><time>2026-04-04T16:43:49.237Z</time></trkpt><trkpt lat="40.6485717" lon="-3.33905"><ele>715.5999999999999</ele><time>2026-04-04T16:43:51.237Z</time></trkpt><trkpt lat="40.6484817" lon="-3.33907"><ele>715.4</ele><time>2026-04-04T16:43:53.237Z</time></trkpt><trkpt lat="40.6483667" lon="-3.3390467"><ele>715.2</ele><time>2026-04-04T16:43:55.237Z</time></trkpt><trkpt lat="40.648265" lon="-3.3390417"><ele>715.0</ele><time>2026-04-04T16:43:57.237Z</time></trkpt><trkpt lat="40.648155" lon="-3.33903"><ele>715.0</ele><time>2026-04-04T16:43:59.237Z</time></trkpt><trkpt lat="40.6480617" lon="-3.33902"><ele>715.0</ele><time>2026-04-04T16:44:01.237Z</time></trkpt><trkpt lat="40.64799" lon="-3.3390083"><ele>715.0</ele><time>2026-04-04T16:44:03.237Z</time></trkpt><trkpt lat="40.6479617" lon="-3.3389333"><ele>715.0</ele><time>2026-04-04T16:44:05.237Z</time></trkpt></trkseg></trk></gpx>